<?xml version="1.0" encoding="UTF-8" standalone="no" ?>
<gpx xmlns="http://www.topografix.com/GPX/1/1" xmlns:xsi="http://www.w3.org/2001/XMLSchema-instance" xsi:schemaLocation="http://www.topografix.com/GPX/1/1 http://www.topografix.com/GPX/1/1/gpx.xsd" version="1.1" creator="VisuGPX - https://www.visugpx.com">
  <metadata>
    <name>Grand tour Entre-Deux-Monts</name>
    <desc><![CDATA[Grand tour d\'entre-Deux-Monts
montée sous malvaux, boucle des routes, retour par tour rachet et grosse montée finale. Le 6 Aout 2011. DG]]></desc>
  </metadata>
  <trk>
    <name><![CDATA[2011-08-06T08:55:55Z]]></name>
    <trkseg>
      <trkpt lat="46.63859" lon="5.95324">
        <ele>742.2751465</ele>
        <time>2011-08-06T08:56:02Z</time>
      </trkpt>
      <trkpt lat="46.63863" lon="5.95341">
        <ele>742.2751465</ele>
        <time>2011-08-06T08:56:07Z</time>
      </trkpt>
      <trkpt lat="46.63865" lon="5.95359">
        <ele>742.7558594</ele>
        <time>2011-08-06T08:56:13Z</time>
      </trkpt>
      <trkpt lat="46.63869" lon="5.95382">
        <ele>742.7558594</ele>
        <time>2011-08-06T08:56:19Z</time>
      </trkpt>
      <trkpt lat="46.63873" lon="5.95402">
        <ele>742.2751465</ele>
        <time>2011-08-06T08:56:24Z</time>
      </trkpt>
      <trkpt lat="46.63876" lon="5.95418">
        <ele>742.2751465</ele>
        <time>2011-08-06T08:56:28Z</time>
      </trkpt>
      <trkpt lat="46.63881" lon="5.95435">
        <ele>743.2363281</ele>
        <time>2011-08-06T08:56:33Z</time>
      </trkpt>
      <trkpt lat="46.63884" lon="5.95454">
        <ele>744.1977539</ele>
        <time>2011-08-06T08:56:38Z</time>
      </trkpt>
      <trkpt lat="46.6389" lon="5.95472">
        <ele>746.6010742</ele>
        <time>2011-08-06T08:56:43Z</time>
      </trkpt>
      <trkpt lat="46.63896" lon="5.95488">
        <ele>750.4465332</ele>
        <time>2011-08-06T08:56:48Z</time>
      </trkpt>
      <trkpt lat="46.63902" lon="5.95506">
        <ele>752.3688965</ele>
        <time>2011-08-06T08:56:54Z</time>
      </trkpt>
      <trkpt lat="46.63907" lon="5.95524">
        <ele>753.8110352</ele>
        <time>2011-08-06T08:56:59Z</time>
      </trkpt>
      <trkpt lat="46.63909" lon="5.9554">
        <ele>754.291748</ele>
        <time>2011-08-06T08:57:04Z</time>
      </trkpt>
      <trkpt lat="46.63906" lon="5.95552">
        <ele>756.2141113</ele>
        <time>2011-08-06T08:57:08Z</time>
      </trkpt>
      <trkpt lat="46.63895" lon="5.95561">
        <ele>755.7336426</ele>
        <time>2011-08-06T08:57:13Z</time>
      </trkpt>
      <trkpt lat="46.63884" lon="5.95566">
        <ele>755.2529297</ele>
        <time>2011-08-06T08:57:17Z</time>
      </trkpt>
      <trkpt lat="46.6387" lon="5.95569">
        <ele>754.291748</ele>
        <time>2011-08-06T08:57:22Z</time>
      </trkpt>
      <trkpt lat="46.63856" lon="5.95576">
        <ele>753.8110352</ele>
        <time>2011-08-06T08:57:28Z</time>
      </trkpt>
      <trkpt lat="46.63838" lon="5.95585">
        <ele>755.7336426</ele>
        <time>2011-08-06T08:57:35Z</time>
      </trkpt>
      <trkpt lat="46.63822" lon="5.95596">
        <ele>759.0981445</ele>
        <time>2011-08-06T08:57:42Z</time>
      </trkpt>
      <trkpt lat="46.63812" lon="5.95605">
        <ele>761.020752</ele>
        <time>2011-08-06T08:57:47Z</time>
      </trkpt>
      <trkpt lat="46.63803" lon="5.95616">
        <ele>760.5400391</ele>
        <time>2011-08-06T08:57:52Z</time>
      </trkpt>
      <trkpt lat="46.63799" lon="5.95619">
        <ele>757.65625</ele>
        <time>2011-08-06T08:57:54Z</time>
      </trkpt>
      <trkpt lat="46.63789" lon="5.95636">
        <ele>754.7722168</ele>
        <time>2011-08-06T08:58:01Z</time>
      </trkpt>
      <trkpt lat="46.63784" lon="5.95649">
        <ele>754.7722168</ele>
        <time>2011-08-06T08:58:06Z</time>
      </trkpt>
      <trkpt lat="46.63782" lon="5.95652">
        <ele>754.291748</ele>
        <time>2011-08-06T08:58:07Z</time>
      </trkpt>
      <trkpt lat="46.63777" lon="5.95666">
        <ele>753.3303223</ele>
        <time>2011-08-06T08:58:13Z</time>
      </trkpt>
      <trkpt lat="46.63771" lon="5.95687">
        <ele>755.7336426</ele>
        <time>2011-08-06T08:58:20Z</time>
      </trkpt>
      <trkpt lat="46.63769" lon="5.95704">
        <ele>758.1369629</ele>
        <time>2011-08-06T08:58:25Z</time>
      </trkpt>
      <trkpt lat="46.63771" lon="5.9572">
        <ele>758.6174316</ele>
        <time>2011-08-06T08:58:30Z</time>
      </trkpt>
      <trkpt lat="46.63774" lon="5.95735">
        <ele>759.0981445</ele>
        <time>2011-08-06T08:58:35Z</time>
      </trkpt>
      <trkpt lat="46.63777" lon="5.95752">
        <ele>759.5788574</ele>
        <time>2011-08-06T08:58:40Z</time>
      </trkpt>
      <trkpt lat="46.6378" lon="5.95769">
        <ele>760.5400391</ele>
        <time>2011-08-06T08:58:45Z</time>
      </trkpt>
      <trkpt lat="46.63782" lon="5.95785">
        <ele>761.020752</ele>
        <time>2011-08-06T08:58:50Z</time>
      </trkpt>
      <trkpt lat="46.63785" lon="5.95804">
        <ele>762.4626465</ele>
        <time>2011-08-06T08:58:55Z</time>
      </trkpt>
      <trkpt lat="46.6379" lon="5.95821">
        <ele>763.4240723</ele>
        <time>2011-08-06T08:59:00Z</time>
      </trkpt>
      <trkpt lat="46.63793" lon="5.95838">
        <ele>762.4626465</ele>
        <time>2011-08-06T08:59:05Z</time>
      </trkpt>
      <trkpt lat="46.63795" lon="5.95857">
        <ele>760.5400391</ele>
        <time>2011-08-06T08:59:10Z</time>
      </trkpt>
      <trkpt lat="46.63795" lon="5.9586">
        <ele>760.5400391</ele>
        <time>2011-08-06T08:59:11Z</time>
      </trkpt>
      <trkpt lat="46.63799" lon="5.95878">
        <ele>757.65625</ele>
        <time>2011-08-06T08:59:17Z</time>
      </trkpt>
      <trkpt lat="46.638" lon="5.95889">
        <ele>755.2529297</ele>
        <time>2011-08-06T08:59:21Z</time>
      </trkpt>
      <trkpt lat="46.63804" lon="5.95905">
        <ele>754.291748</ele>
        <time>2011-08-06T08:59:26Z</time>
      </trkpt>
      <trkpt lat="46.63808" lon="5.95923">
        <ele>753.8110352</ele>
        <time>2011-08-06T08:59:31Z</time>
      </trkpt>
      <trkpt lat="46.63806" lon="5.95937">
        <ele>752.8496094</ele>
        <time>2011-08-06T08:59:35Z</time>
      </trkpt>
      <trkpt lat="46.63804" lon="5.95953">
        <ele>750.4465332</ele>
        <time>2011-08-06T08:59:40Z</time>
      </trkpt>
      <trkpt lat="46.63801" lon="5.95969">
        <ele>750.4465332</ele>
        <time>2011-08-06T08:59:45Z</time>
      </trkpt>
      <trkpt lat="46.63797" lon="5.95991">
        <ele>754.291748</ele>
        <time>2011-08-06T08:59:51Z</time>
      </trkpt>
      <trkpt lat="46.63795" lon="5.96015">
        <ele>759.5788574</ele>
        <time>2011-08-06T08:59:57Z</time>
      </trkpt>
      <trkpt lat="46.63793" lon="5.96033">
        <ele>761.020752</ele>
        <time>2011-08-06T09:00:02Z</time>
      </trkpt>
      <trkpt lat="46.63794" lon="5.96052">
        <ele>763.4240723</ele>
        <time>2011-08-06T09:00:07Z</time>
      </trkpt>
      <trkpt lat="46.63794" lon="5.96068">
        <ele>760.5400391</ele>
        <time>2011-08-06T09:00:12Z</time>
      </trkpt>
      <trkpt lat="46.63795" lon="5.96081">
        <ele>759.5788574</ele>
        <time>2011-08-06T09:00:16Z</time>
      </trkpt>
      <trkpt lat="46.63795" lon="5.96094">
        <ele>757.65625</ele>
        <time>2011-08-06T09:00:20Z</time>
      </trkpt>
      <trkpt lat="46.63796" lon="5.9611">
        <ele>757.1755371</ele>
        <time>2011-08-06T09:00:25Z</time>
      </trkpt>
      <trkpt lat="46.63796" lon="5.96117">
        <ele>757.1755371</ele>
        <time>2011-08-06T09:00:27Z</time>
      </trkpt>
      <trkpt lat="46.63796" lon="5.96126">
        <ele>758.1369629</ele>
        <time>2011-08-06T09:00:30Z</time>
      </trkpt>
      <trkpt lat="46.63795" lon="5.96139">
        <ele>759.0981445</ele>
        <time>2011-08-06T09:00:34Z</time>
      </trkpt>
      <trkpt lat="46.63795" lon="5.96161">
        <ele>761.020752</ele>
        <time>2011-08-06T09:00:39Z</time>
      </trkpt>
      <trkpt lat="46.63799" lon="5.96177">
        <ele>763.4240723</ele>
        <time>2011-08-06T09:00:44Z</time>
      </trkpt>
      <trkpt lat="46.63801" lon="5.96194">
        <ele>763.4240723</ele>
        <time>2011-08-06T09:00:49Z</time>
      </trkpt>
      <trkpt lat="46.63799" lon="5.96214">
        <ele>762.9433594</ele>
        <time>2011-08-06T09:00:55Z</time>
      </trkpt>
      <trkpt lat="46.63803" lon="5.96238">
        <ele>761.5014648</ele>
        <time>2011-08-06T09:01:03Z</time>
      </trkpt>
      <trkpt lat="46.63802" lon="5.96255">
        <ele>761.5014648</ele>
        <time>2011-08-06T09:01:08Z</time>
      </trkpt>
      <trkpt lat="46.63802" lon="5.96272">
        <ele>762.4626465</ele>
        <time>2011-08-06T09:01:13Z</time>
      </trkpt>
      <trkpt lat="46.63799" lon="5.96288">
        <ele>761.9821777</ele>
        <time>2011-08-06T09:01:18Z</time>
      </trkpt>
      <trkpt lat="46.63802" lon="5.96303">
        <ele>763.4240723</ele>
        <time>2011-08-06T09:01:22Z</time>
      </trkpt>
      <trkpt lat="46.63812" lon="5.96319">
        <ele>767.2695313</ele>
        <time>2011-08-06T09:01:27Z</time>
      </trkpt>
      <trkpt lat="46.63815" lon="5.96333">
        <ele>770.1533203</ele>
        <time>2011-08-06T09:01:31Z</time>
      </trkpt>
      <trkpt lat="46.63815" lon="5.96346">
        <ele>771.5952148</ele>
        <time>2011-08-06T09:01:35Z</time>
      </trkpt>
      <trkpt lat="46.63815" lon="5.96364">
        <ele>773.5180664</ele>
        <time>2011-08-06T09:01:41Z</time>
      </trkpt>
      <trkpt lat="46.63816" lon="5.96382">
        <ele>769.6728516</ele>
        <time>2011-08-06T09:01:48Z</time>
      </trkpt>
      <trkpt lat="46.63815" lon="5.96398">
        <ele>768.7114258</ele>
        <time>2011-08-06T09:01:53Z</time>
      </trkpt>
      <trkpt lat="46.63813" lon="5.96415">
        <ele>770.1533203</ele>
        <time>2011-08-06T09:01:58Z</time>
      </trkpt>
      <trkpt lat="46.63811" lon="5.96433">
        <ele>767.75</ele>
        <time>2011-08-06T09:02:04Z</time>
      </trkpt>
      <trkpt lat="46.63811" lon="5.96448">
        <ele>767.75</ele>
        <time>2011-08-06T09:02:09Z</time>
      </trkpt>
      <trkpt lat="46.63806" lon="5.96467">
        <ele>766.3081055</ele>
        <time>2011-08-06T09:02:15Z</time>
      </trkpt>
      <trkpt lat="46.63806" lon="5.96485">
        <ele>764.385498</ele>
        <time>2011-08-06T09:02:20Z</time>
      </trkpt>
      <trkpt lat="46.63806" lon="5.96508">
        <ele>767.2695313</ele>
        <time>2011-08-06T09:02:27Z</time>
      </trkpt>
      <trkpt lat="46.63804" lon="5.96528">
        <ele>768.7114258</ele>
        <time>2011-08-06T09:02:33Z</time>
      </trkpt>
      <trkpt lat="46.63804" lon="5.96542">
        <ele>771.1147461</ele>
        <time>2011-08-06T09:02:37Z</time>
      </trkpt>
      <trkpt lat="46.63803" lon="5.96559">
        <ele>772.5566406</ele>
        <time>2011-08-06T09:02:43Z</time>
      </trkpt>
      <trkpt lat="46.63803" lon="5.96578">
        <ele>775.4404297</ele>
        <time>2011-08-06T09:02:49Z</time>
      </trkpt>
      <trkpt lat="46.63804" lon="5.96581">
        <ele>775.9211426</ele>
        <time>2011-08-06T09:02:50Z</time>
      </trkpt>
      <trkpt lat="46.63804" lon="5.96598">
        <ele>777.84375</ele>
        <time>2011-08-06T09:02:56Z</time>
      </trkpt>
      <trkpt lat="46.63804" lon="5.96618">
        <ele>780.7280273</ele>
        <time>2011-08-06T09:03:02Z</time>
      </trkpt>
      <trkpt lat="46.63804" lon="5.96623">
        <ele>782.1699219</ele>
        <time>2011-08-06T09:03:04Z</time>
      </trkpt>
      <trkpt lat="46.63803" lon="5.96647">
        <ele>783.1311035</ele>
        <time>2011-08-06T09:03:12Z</time>
      </trkpt>
      <trkpt lat="46.63802" lon="5.96665">
        <ele>783.1311035</ele>
        <time>2011-08-06T09:03:18Z</time>
      </trkpt>
      <trkpt lat="46.63803" lon="5.96678">
        <ele>786.0151367</ele>
        <time>2011-08-06T09:03:22Z</time>
      </trkpt>
      <trkpt lat="46.63807" lon="5.96695">
        <ele>786.9763184</ele>
        <time>2011-08-06T09:03:28Z</time>
      </trkpt>
      <trkpt lat="46.6381" lon="5.96707">
        <ele>790.3410645</ele>
        <time>2011-08-06T09:03:32Z</time>
      </trkpt>
      <trkpt lat="46.63809" lon="5.96724">
        <ele>796.1091309</ele>
        <time>2011-08-06T09:03:37Z</time>
      </trkpt>
      <trkpt lat="46.63811" lon="5.96747">
        <ele>797.0703125</ele>
        <time>2011-08-06T09:03:44Z</time>
      </trkpt>
      <trkpt lat="46.63813" lon="5.9675">
        <ele>797.5510254</ele>
        <time>2011-08-06T09:03:45Z</time>
      </trkpt>
      <trkpt lat="46.63814" lon="5.96775">
        <ele>801.3962402</ele>
        <time>2011-08-06T09:03:52Z</time>
      </trkpt>
      <trkpt lat="46.63813" lon="5.96789">
        <ele>799.9543457</ele>
        <time>2011-08-06T09:03:56Z</time>
      </trkpt>
      <trkpt lat="46.63814" lon="5.96806">
        <ele>796.1091309</ele>
        <time>2011-08-06T09:04:02Z</time>
      </trkpt>
      <trkpt lat="46.63817" lon="5.96825">
        <ele>797.5510254</ele>
        <time>2011-08-06T09:04:07Z</time>
      </trkpt>
      <trkpt lat="46.63816" lon="5.96838">
        <ele>796.1091309</ele>
        <time>2011-08-06T09:04:11Z</time>
      </trkpt>
      <trkpt lat="46.6382" lon="5.96853">
        <ele>794.1862793</ele>
        <time>2011-08-06T09:04:16Z</time>
      </trkpt>
      <trkpt lat="46.6382" lon="5.9687">
        <ele>794.1862793</ele>
        <time>2011-08-06T09:04:21Z</time>
      </trkpt>
      <trkpt lat="46.63823" lon="5.96886">
        <ele>798.0317383</ele>
        <time>2011-08-06T09:04:25Z</time>
      </trkpt>
      <trkpt lat="46.63825" lon="5.96901">
        <ele>801.8769531</ele>
        <time>2011-08-06T09:04:30Z</time>
      </trkpt>
      <trkpt lat="46.63826" lon="5.96918">
        <ele>798.512207</ele>
        <time>2011-08-06T09:04:35Z</time>
      </trkpt>
      <trkpt lat="46.63826" lon="5.96929">
        <ele>796.1091309</ele>
        <time>2011-08-06T09:04:38Z</time>
      </trkpt>
      <trkpt lat="46.63832" lon="5.9695">
        <ele>797.0703125</ele>
        <time>2011-08-06T09:04:44Z</time>
      </trkpt>
      <trkpt lat="46.63837" lon="5.96962">
        <ele>795.1474609</ele>
        <time>2011-08-06T09:04:48Z</time>
      </trkpt>
      <trkpt lat="46.63843" lon="5.96979">
        <ele>792.7443848</ele>
        <time>2011-08-06T09:04:53Z</time>
      </trkpt>
      <trkpt lat="46.63843" lon="5.96997">
        <ele>790.8215332</ele>
        <time>2011-08-06T09:04:58Z</time>
      </trkpt>
      <trkpt lat="46.63843" lon="5.97">
        <ele>790.3410645</ele>
        <time>2011-08-06T09:04:59Z</time>
      </trkpt>
      <trkpt lat="46.63845" lon="5.97016">
        <ele>791.3022461</ele>
        <time>2011-08-06T09:05:04Z</time>
      </trkpt>
      <trkpt lat="46.63847" lon="5.9703">
        <ele>790.8215332</ele>
        <time>2011-08-06T09:05:08Z</time>
      </trkpt>
      <trkpt lat="46.63848" lon="5.97045">
        <ele>789.3796387</ele>
        <time>2011-08-06T09:05:12Z</time>
      </trkpt>
      <trkpt lat="46.63851" lon="5.97063">
        <ele>789.3796387</ele>
        <time>2011-08-06T09:05:17Z</time>
      </trkpt>
      <trkpt lat="46.63852" lon="5.97068">
        <ele>788.8991699</ele>
        <time>2011-08-06T09:05:18Z</time>
      </trkpt>
      <trkpt lat="46.63858" lon="5.9709">
        <ele>788.418457</ele>
        <time>2011-08-06T09:05:23Z</time>
      </trkpt>
      <trkpt lat="46.6386" lon="5.97109">
        <ele>788.418457</ele>
        <time>2011-08-06T09:05:29Z</time>
      </trkpt>
      <trkpt lat="46.63861" lon="5.97124">
        <ele>788.8991699</ele>
        <time>2011-08-06T09:05:33Z</time>
      </trkpt>
      <trkpt lat="46.63865" lon="5.97144">
        <ele>789.3796387</ele>
        <time>2011-08-06T09:05:38Z</time>
      </trkpt>
      <trkpt lat="46.63866" lon="5.9716">
        <ele>788.418457</ele>
        <time>2011-08-06T09:05:43Z</time>
      </trkpt>
      <trkpt lat="46.63869" lon="5.97178">
        <ele>786.9763184</ele>
        <time>2011-08-06T09:05:48Z</time>
      </trkpt>
      <trkpt lat="46.63872" lon="5.97184">
        <ele>786.4958496</ele>
        <time>2011-08-06T09:05:50Z</time>
      </trkpt>
      <trkpt lat="46.63877" lon="5.97193">
        <ele>789.8603516</ele>
        <time>2011-08-06T09:05:53Z</time>
      </trkpt>
      <trkpt lat="46.63882" lon="5.97215">
        <ele>791.782959</ele>
        <time>2011-08-06T09:05:58Z</time>
      </trkpt>
      <trkpt lat="46.63888" lon="5.97239">
        <ele>792.2636719</ele>
        <time>2011-08-06T09:06:04Z</time>
      </trkpt>
      <trkpt lat="46.63889" lon="5.97257">
        <ele>794.1862793</ele>
        <time>2011-08-06T09:06:08Z</time>
      </trkpt>
      <trkpt lat="46.63893" lon="5.97277">
        <ele>790.3410645</ele>
        <time>2011-08-06T09:06:13Z</time>
      </trkpt>
      <trkpt lat="46.63897" lon="5.97292">
        <ele>788.8991699</ele>
        <time>2011-08-06T09:06:17Z</time>
      </trkpt>
      <trkpt lat="46.63907" lon="5.97308">
        <ele>790.3410645</ele>
        <time>2011-08-06T09:06:22Z</time>
      </trkpt>
      <trkpt lat="46.63915" lon="5.97322">
        <ele>793.2248535</ele>
        <time>2011-08-06T09:06:26Z</time>
      </trkpt>
      <trkpt lat="46.6392" lon="5.97336">
        <ele>792.2636719</ele>
        <time>2011-08-06T09:06:30Z</time>
      </trkpt>
      <trkpt lat="46.63926" lon="5.97351">
        <ele>793.7055664</ele>
        <time>2011-08-06T09:06:34Z</time>
      </trkpt>
      <trkpt lat="46.63928" lon="5.9737">
        <ele>791.782959</ele>
        <time>2011-08-06T09:06:39Z</time>
      </trkpt>
      <trkpt lat="46.63923" lon="5.97385">
        <ele>789.8603516</ele>
        <time>2011-08-06T09:06:44Z</time>
      </trkpt>
      <trkpt lat="46.63917" lon="5.97394">
        <ele>789.3796387</ele>
        <time>2011-08-06T09:06:49Z</time>
      </trkpt>
      <trkpt lat="46.63915" lon="5.97396">
        <ele>789.3796387</ele>
        <time>2011-08-06T09:06:50Z</time>
      </trkpt>
      <trkpt lat="46.63909" lon="5.97406">
        <ele>791.3022461</ele>
        <time>2011-08-06T09:06:56Z</time>
      </trkpt>
      <trkpt lat="46.63903" lon="5.97411">
        <ele>792.2636719</ele>
        <time>2011-08-06T09:07:00Z</time>
      </trkpt>
      <trkpt lat="46.63898" lon="5.97418">
        <ele>793.7055664</ele>
        <time>2011-08-06T09:07:06Z</time>
      </trkpt>
      <trkpt lat="46.63896" lon="5.9742">
        <ele>795.1474609</ele>
        <time>2011-08-06T09:07:08Z</time>
      </trkpt>
      <trkpt lat="46.63891" lon="5.97434">
        <ele>803.7995605</ele>
        <time>2011-08-06T09:07:15Z</time>
      </trkpt>
      <trkpt lat="46.63886" lon="5.97441">
        <ele>804.2802734</ele>
        <time>2011-08-06T09:07:20Z</time>
      </trkpt>
      <trkpt lat="46.63883" lon="5.97446">
        <ele>804.7607422</ele>
        <time>2011-08-06T09:07:23Z</time>
      </trkpt>
      <trkpt lat="46.63878" lon="5.97451">
        <ele>802.8381348</ele>
        <time>2011-08-06T09:07:28Z</time>
      </trkpt>
      <trkpt lat="46.63872" lon="5.97456">
        <ele>801.8769531</ele>
        <time>2011-08-06T09:07:32Z</time>
      </trkpt>
      <trkpt lat="46.6387" lon="5.97464">
        <ele>802.3574219</ele>
        <time>2011-08-06T09:07:37Z</time>
      </trkpt>
      <trkpt lat="46.63867" lon="5.97485">
        <ele>802.3574219</ele>
        <time>2011-08-06T09:07:45Z</time>
      </trkpt>
      <trkpt lat="46.63866" lon="5.97501">
        <ele>805.2414551</ele>
        <time>2011-08-06T09:07:51Z</time>
      </trkpt>
      <trkpt lat="46.63863" lon="5.97514">
        <ele>801.8769531</ele>
        <time>2011-08-06T09:07:56Z</time>
      </trkpt>
      <trkpt lat="46.63865" lon="5.97524">
        <ele>801.3962402</ele>
        <time>2011-08-06T09:08:01Z</time>
      </trkpt>
      <trkpt lat="46.63864" lon="5.97533">
        <ele>798.9929199</ele>
        <time>2011-08-06T09:08:06Z</time>
      </trkpt>
      <trkpt lat="46.63864" lon="5.97544">
        <ele>800.4350586</ele>
        <time>2011-08-06T09:08:11Z</time>
      </trkpt>
      <trkpt lat="46.63865" lon="5.97561">
        <ele>801.8769531</ele>
        <time>2011-08-06T09:08:17Z</time>
      </trkpt>
      <trkpt lat="46.63866" lon="5.97567">
        <ele>802.3574219</ele>
        <time>2011-08-06T09:08:19Z</time>
      </trkpt>
      <trkpt lat="46.63869" lon="5.97585">
        <ele>803.3188477</ele>
        <time>2011-08-06T09:08:25Z</time>
      </trkpt>
      <trkpt lat="46.63874" lon="5.976">
        <ele>803.3188477</ele>
        <time>2011-08-06T09:08:30Z</time>
      </trkpt>
      <trkpt lat="46.63877" lon="5.9761">
        <ele>802.3574219</ele>
        <time>2011-08-06T09:08:34Z</time>
      </trkpt>
      <trkpt lat="46.6388" lon="5.97623">
        <ele>803.7995605</ele>
        <time>2011-08-06T09:08:38Z</time>
      </trkpt>
      <trkpt lat="46.63881" lon="5.97629">
        <ele>804.2802734</ele>
        <time>2011-08-06T09:08:40Z</time>
      </trkpt>
      <trkpt lat="46.63883" lon="5.97646">
        <ele>809.5673828</ele>
        <time>2011-08-06T09:08:46Z</time>
      </trkpt>
      <trkpt lat="46.63881" lon="5.9765">
        <ele>810.5285645</ele>
        <time>2011-08-06T09:08:48Z</time>
      </trkpt>
      <trkpt lat="46.63879" lon="5.9767">
        <ele>813.8933105</ele>
        <time>2011-08-06T09:08:55Z</time>
      </trkpt>
      <trkpt lat="46.63879" lon="5.97684">
        <ele>812.451416</ele>
        <time>2011-08-06T09:09:00Z</time>
      </trkpt>
      <trkpt lat="46.6388" lon="5.9769">
        <ele>814.3740234</ele>
        <time>2011-08-06T09:09:02Z</time>
      </trkpt>
      <trkpt lat="46.63883" lon="5.97696">
        <ele>815.8161621</ele>
        <time>2011-08-06T09:09:06Z</time>
      </trkpt>
      <trkpt lat="46.63887" lon="5.97703">
        <ele>811.9707031</ele>
        <time>2011-08-06T09:09:11Z</time>
      </trkpt>
      <trkpt lat="46.63893" lon="5.97705">
        <ele>809.0866699</ele>
        <time>2011-08-06T09:09:14Z</time>
      </trkpt>
      <trkpt lat="46.63892" lon="5.97713">
        <ele>810.5285645</ele>
        <time>2011-08-06T09:09:19Z</time>
      </trkpt>
      <trkpt lat="46.63894" lon="5.97731">
        <ele>815.3354492</ele>
        <time>2011-08-06T09:09:25Z</time>
      </trkpt>
      <trkpt lat="46.63898" lon="5.97747">
        <ele>824.9484863</ele>
        <time>2011-08-06T09:09:30Z</time>
      </trkpt>
      <trkpt lat="46.63899" lon="5.97764">
        <ele>829.2744141</ele>
        <time>2011-08-06T09:09:35Z</time>
      </trkpt>
      <trkpt lat="46.639" lon="5.97778">
        <ele>820.6225586</ele>
        <time>2011-08-06T09:09:41Z</time>
      </trkpt>
      <trkpt lat="46.63901" lon="5.97785">
        <ele>816.2966309</ele>
        <time>2011-08-06T09:09:44Z</time>
      </trkpt>
      <trkpt lat="46.63903" lon="5.97795">
        <ele>812.9321289</ele>
        <time>2011-08-06T09:09:49Z</time>
      </trkpt>
      <trkpt lat="46.63901" lon="5.97799">
        <ele>812.451416</ele>
        <time>2011-08-06T09:09:55Z</time>
      </trkpt>
      <trkpt lat="46.63904" lon="5.97802">
        <ele>811.4899902</ele>
        <time>2011-08-06T09:09:57Z</time>
      </trkpt>
      <trkpt lat="46.63908" lon="5.97809">
        <ele>814.3740234</ele>
        <time>2011-08-06T09:10:01Z</time>
      </trkpt>
      <trkpt lat="46.6392" lon="5.97817">
        <ele>821.5837402</ele>
        <time>2011-08-06T09:10:08Z</time>
      </trkpt>
      <trkpt lat="46.63924" lon="5.97821">
        <ele>823.0258789</ele>
        <time>2011-08-06T09:10:10Z</time>
      </trkpt>
      <trkpt lat="46.63934" lon="5.97824">
        <ele>826.3903809</ele>
        <time>2011-08-06T09:10:16Z</time>
      </trkpt>
      <trkpt lat="46.63943" lon="5.97816">
        <ele>826.3903809</ele>
        <time>2011-08-06T09:10:21Z</time>
      </trkpt>
      <trkpt lat="46.63948" lon="5.97815">
        <ele>821.5837402</ele>
        <time>2011-08-06T09:10:26Z</time>
      </trkpt>
      <trkpt lat="46.63949" lon="5.97813">
        <ele>821.1032715</ele>
        <time>2011-08-06T09:10:27Z</time>
      </trkpt>
      <trkpt lat="46.63957" lon="5.97809">
        <ele>819.661377</ele>
        <time>2011-08-06T09:10:31Z</time>
      </trkpt>
      <trkpt lat="46.63971" lon="5.97794">
        <ele>827.8322754</ele>
        <time>2011-08-06T09:10:38Z</time>
      </trkpt>
      <trkpt lat="46.6398" lon="5.97789">
        <ele>828.7939453</ele>
        <time>2011-08-06T09:10:42Z</time>
      </trkpt>
      <trkpt lat="46.63983" lon="5.97789">
        <ele>828.3132324</ele>
        <time>2011-08-06T09:10:43Z</time>
      </trkpt>
      <trkpt lat="46.63997" lon="5.97793">
        <ele>823.0258789</ele>
        <time>2011-08-06T09:10:49Z</time>
      </trkpt>
      <trkpt lat="46.64" lon="5.97794">
        <ele>822.545166</ele>
        <time>2011-08-06T09:10:51Z</time>
      </trkpt>
      <trkpt lat="46.64019" lon="5.97805">
        <ele>822.545166</ele>
        <time>2011-08-06T09:10:59Z</time>
      </trkpt>
      <trkpt lat="46.64033" lon="5.97815">
        <ele>822.0644531</ele>
        <time>2011-08-06T09:11:04Z</time>
      </trkpt>
      <trkpt lat="46.64044" lon="5.97823">
        <ele>823.0258789</ele>
        <time>2011-08-06T09:11:09Z</time>
      </trkpt>
      <trkpt lat="46.64053" lon="5.97833">
        <ele>820.6225586</ele>
        <time>2011-08-06T09:11:13Z</time>
      </trkpt>
      <trkpt lat="46.64061" lon="5.97847">
        <ele>820.1418457</ele>
        <time>2011-08-06T09:11:19Z</time>
      </trkpt>
      <trkpt lat="46.64064" lon="5.97852">
        <ele>818.6999512</ele>
        <time>2011-08-06T09:11:21Z</time>
      </trkpt>
      <trkpt lat="46.64067" lon="5.97863">
        <ele>818.2192383</ele>
        <time>2011-08-06T09:11:26Z</time>
      </trkpt>
      <trkpt lat="46.64071" lon="5.97872">
        <ele>814.3740234</ele>
        <time>2011-08-06T09:11:28Z</time>
      </trkpt>
      <trkpt lat="46.6408" lon="5.97892">
        <ele>804.2802734</ele>
        <time>2011-08-06T09:11:36Z</time>
      </trkpt>
      <trkpt lat="46.64083" lon="5.97906">
        <ele>803.3188477</ele>
        <time>2011-08-06T09:11:40Z</time>
      </trkpt>
      <trkpt lat="46.64084" lon="5.97913">
        <ele>802.8381348</ele>
        <time>2011-08-06T09:11:42Z</time>
      </trkpt>
      <trkpt lat="46.64096" lon="5.9793">
        <ele>808.605957</ele>
        <time>2011-08-06T09:11:49Z</time>
      </trkpt>
      <trkpt lat="46.641" lon="5.97938">
        <ele>810.0478516</ele>
        <time>2011-08-06T09:11:52Z</time>
      </trkpt>
      <trkpt lat="46.64114" lon="5.97948">
        <ele>812.9321289</ele>
        <time>2011-08-06T09:11:58Z</time>
      </trkpt>
      <trkpt lat="46.64124" lon="5.97958">
        <ele>812.451416</ele>
        <time>2011-08-06T09:12:03Z</time>
      </trkpt>
      <trkpt lat="46.64137" lon="5.97973">
        <ele>812.9321289</ele>
        <time>2011-08-06T09:12:09Z</time>
      </trkpt>
      <trkpt lat="46.64138" lon="5.97977">
        <ele>812.451416</ele>
        <time>2011-08-06T09:12:10Z</time>
      </trkpt>
      <trkpt lat="46.6414" lon="5.97984">
        <ele>811.4899902</ele>
        <time>2011-08-06T09:12:12Z</time>
      </trkpt>
      <trkpt lat="46.64146" lon="5.98004">
        <ele>809.5673828</ele>
        <time>2011-08-06T09:12:19Z</time>
      </trkpt>
      <trkpt lat="46.64147" lon="5.98019">
        <ele>806.6833496</ele>
        <time>2011-08-06T09:12:23Z</time>
      </trkpt>
      <trkpt lat="46.64148" lon="5.98031">
        <ele>804.2802734</ele>
        <time>2011-08-06T09:12:26Z</time>
      </trkpt>
      <trkpt lat="46.64149" lon="5.98046">
        <ele>802.8381348</ele>
        <time>2011-08-06T09:12:30Z</time>
      </trkpt>
      <trkpt lat="46.64152" lon="5.98063">
        <ele>800.4350586</ele>
        <time>2011-08-06T09:12:35Z</time>
      </trkpt>
      <trkpt lat="46.64153" lon="5.98074">
        <ele>799.9543457</ele>
        <time>2011-08-06T09:12:38Z</time>
      </trkpt>
      <trkpt lat="46.64151" lon="5.98096">
        <ele>797.5510254</ele>
        <time>2011-08-06T09:12:45Z</time>
      </trkpt>
      <trkpt lat="46.64153" lon="5.98113">
        <ele>796.5898438</ele>
        <time>2011-08-06T09:12:50Z</time>
      </trkpt>
      <trkpt lat="46.64155" lon="5.98124">
        <ele>796.1091309</ele>
        <time>2011-08-06T09:12:53Z</time>
      </trkpt>
      <trkpt lat="46.6416" lon="5.98143">
        <ele>797.0703125</ele>
        <time>2011-08-06T09:12:58Z</time>
      </trkpt>
      <trkpt lat="46.64162" lon="5.98157">
        <ele>798.512207</ele>
        <time>2011-08-06T09:13:02Z</time>
      </trkpt>
      <trkpt lat="46.64163" lon="5.98163">
        <ele>799.4736328</ele>
        <time>2011-08-06T09:13:04Z</time>
      </trkpt>
      <trkpt lat="46.64164" lon="5.9818">
        <ele>801.3962402</ele>
        <time>2011-08-06T09:13:09Z</time>
      </trkpt>
      <trkpt lat="46.64168" lon="5.98194">
        <ele>802.8381348</ele>
        <time>2011-08-06T09:13:14Z</time>
      </trkpt>
      <trkpt lat="46.64173" lon="5.98202">
        <ele>802.8381348</ele>
        <time>2011-08-06T09:13:17Z</time>
      </trkpt>
      <trkpt lat="46.64177" lon="5.98221">
        <ele>802.3574219</ele>
        <time>2011-08-06T09:13:23Z</time>
      </trkpt>
      <trkpt lat="46.64177" lon="5.98225">
        <ele>802.8381348</ele>
        <time>2011-08-06T09:13:24Z</time>
      </trkpt>
      <trkpt lat="46.64177" lon="5.98234">
        <ele>804.2802734</ele>
        <time>2011-08-06T09:13:26Z</time>
      </trkpt>
      <trkpt lat="46.64183" lon="5.98255">
        <ele>804.2802734</ele>
        <time>2011-08-06T09:13:32Z</time>
      </trkpt>
      <trkpt lat="46.64181" lon="5.98267">
        <ele>802.3574219</ele>
        <time>2011-08-06T09:13:36Z</time>
      </trkpt>
      <trkpt lat="46.64182" lon="5.9828">
        <ele>803.3188477</ele>
        <time>2011-08-06T09:13:40Z</time>
      </trkpt>
      <trkpt lat="46.64182" lon="5.98292">
        <ele>803.7995605</ele>
        <time>2011-08-06T09:13:43Z</time>
      </trkpt>
      <trkpt lat="46.64183" lon="5.9832">
        <ele>805.722168</ele>
        <time>2011-08-06T09:13:50Z</time>
      </trkpt>
      <trkpt lat="46.64184" lon="5.98338">
        <ele>806.2026367</ele>
        <time>2011-08-06T09:13:55Z</time>
      </trkpt>
      <trkpt lat="46.64184" lon="5.98357">
        <ele>804.7607422</ele>
        <time>2011-08-06T09:14:00Z</time>
      </trkpt>
      <trkpt lat="46.64189" lon="5.98373">
        <ele>803.3188477</ele>
        <time>2011-08-06T09:14:05Z</time>
      </trkpt>
      <trkpt lat="46.64195" lon="5.98382">
        <ele>803.3188477</ele>
        <time>2011-08-06T09:14:09Z</time>
      </trkpt>
      <trkpt lat="46.64204" lon="5.98378">
        <ele>801.8769531</ele>
        <time>2011-08-06T09:14:14Z</time>
      </trkpt>
      <trkpt lat="46.64216" lon="5.98375">
        <ele>803.3188477</ele>
        <time>2011-08-06T09:14:20Z</time>
      </trkpt>
      <trkpt lat="46.64227" lon="5.98368">
        <ele>804.7607422</ele>
        <time>2011-08-06T09:14:26Z</time>
      </trkpt>
      <trkpt lat="46.64229" lon="5.98368">
        <ele>805.722168</ele>
        <time>2011-08-06T09:14:27Z</time>
      </trkpt>
      <trkpt lat="46.64234" lon="5.98368">
        <ele>805.722168</ele>
        <time>2011-08-06T09:14:29Z</time>
      </trkpt>
      <trkpt lat="46.64245" lon="5.98356">
        <ele>807.6447754</ele>
        <time>2011-08-06T09:14:34Z</time>
      </trkpt>
      <trkpt lat="46.64255" lon="5.98344">
        <ele>808.605957</ele>
        <time>2011-08-06T09:14:39Z</time>
      </trkpt>
      <trkpt lat="46.64264" lon="5.98336">
        <ele>808.1254883</ele>
        <time>2011-08-06T09:14:43Z</time>
      </trkpt>
      <trkpt lat="46.64273" lon="5.98329">
        <ele>807.1640625</ele>
        <time>2011-08-06T09:14:47Z</time>
      </trkpt>
      <trkpt lat="46.6428" lon="5.9832">
        <ele>807.6447754</ele>
        <time>2011-08-06T09:14:51Z</time>
      </trkpt>
      <trkpt lat="46.64282" lon="5.98318">
        <ele>808.1254883</ele>
        <time>2011-08-06T09:14:52Z</time>
      </trkpt>
      <trkpt lat="46.64291" lon="5.9831">
        <ele>812.9321289</ele>
        <time>2011-08-06T09:14:57Z</time>
      </trkpt>
      <trkpt lat="46.64303" lon="5.983">
        <ele>814.3740234</ele>
        <time>2011-08-06T09:15:04Z</time>
      </trkpt>
      <trkpt lat="46.64309" lon="5.98297">
        <ele>815.3354492</ele>
        <time>2011-08-06T09:15:07Z</time>
      </trkpt>
      <trkpt lat="46.6432" lon="5.98292">
        <ele>815.3354492</ele>
        <time>2011-08-06T09:15:12Z</time>
      </trkpt>
      <trkpt lat="46.64325" lon="5.9829">
        <ele>814.8547363</ele>
        <time>2011-08-06T09:15:14Z</time>
      </trkpt>
      <trkpt lat="46.64337" lon="5.98283">
        <ele>814.3740234</ele>
        <time>2011-08-06T09:15:20Z</time>
      </trkpt>
      <trkpt lat="46.64344" lon="5.98283">
        <ele>813.8933105</ele>
        <time>2011-08-06T09:15:23Z</time>
      </trkpt>
      <trkpt lat="46.64358" lon="5.98278">
        <ele>812.9321289</ele>
        <time>2011-08-06T09:15:29Z</time>
      </trkpt>
      <trkpt lat="46.64362" lon="5.98275">
        <ele>811.9707031</ele>
        <time>2011-08-06T09:15:31Z</time>
      </trkpt>
      <trkpt lat="46.64374" lon="5.98267">
        <ele>811.9707031</ele>
        <time>2011-08-06T09:15:36Z</time>
      </trkpt>
      <trkpt lat="46.6438" lon="5.98262">
        <ele>811.4899902</ele>
        <time>2011-08-06T09:15:38Z</time>
      </trkpt>
      <trkpt lat="46.64392" lon="5.98254">
        <ele>810.0478516</ele>
        <time>2011-08-06T09:15:44Z</time>
      </trkpt>
      <trkpt lat="46.64406" lon="5.98249">
        <ele>808.1254883</ele>
        <time>2011-08-06T09:15:49Z</time>
      </trkpt>
      <trkpt lat="46.64415" lon="5.98246">
        <ele>807.6447754</ele>
        <time>2011-08-06T09:15:53Z</time>
      </trkpt>
      <trkpt lat="46.64428" lon="5.98244">
        <ele>808.605957</ele>
        <time>2011-08-06T09:15:58Z</time>
      </trkpt>
      <trkpt lat="46.64432" lon="5.98242">
        <ele>808.605957</ele>
        <time>2011-08-06T09:16:00Z</time>
      </trkpt>
      <trkpt lat="46.64436" lon="5.98239">
        <ele>809.0866699</ele>
        <time>2011-08-06T09:16:02Z</time>
      </trkpt>
      <trkpt lat="46.64446" lon="5.98235">
        <ele>814.3740234</ele>
        <time>2011-08-06T09:16:07Z</time>
      </trkpt>
      <trkpt lat="46.64451" lon="5.98233">
        <ele>816.2966309</ele>
        <time>2011-08-06T09:16:10Z</time>
      </trkpt>
      <trkpt lat="46.64459" lon="5.98225">
        <ele>819.1806641</ele>
        <time>2011-08-06T09:16:15Z</time>
      </trkpt>
      <trkpt lat="46.64468" lon="5.98216">
        <ele>818.6999512</ele>
        <time>2011-08-06T09:16:20Z</time>
      </trkpt>
      <trkpt lat="46.64475" lon="5.98206">
        <ele>819.1806641</ele>
        <time>2011-08-06T09:16:25Z</time>
      </trkpt>
      <trkpt lat="46.64487" lon="5.98196">
        <ele>818.2192383</ele>
        <time>2011-08-06T09:16:31Z</time>
      </trkpt>
      <trkpt lat="46.64497" lon="5.98189">
        <ele>816.2966309</ele>
        <time>2011-08-06T09:16:36Z</time>
      </trkpt>
      <trkpt lat="46.64501" lon="5.98186">
        <ele>815.8161621</ele>
        <time>2011-08-06T09:16:38Z</time>
      </trkpt>
      <trkpt lat="46.6451" lon="5.98176">
        <ele>815.3354492</ele>
        <time>2011-08-06T09:16:43Z</time>
      </trkpt>
      <trkpt lat="46.64518" lon="5.98172">
        <ele>814.3740234</ele>
        <time>2011-08-06T09:16:47Z</time>
      </trkpt>
      <trkpt lat="46.64521" lon="5.98171">
        <ele>813.8933105</ele>
        <time>2011-08-06T09:16:48Z</time>
      </trkpt>
      <trkpt lat="46.64536" lon="5.98167">
        <ele>812.9321289</ele>
        <time>2011-08-06T09:16:54Z</time>
      </trkpt>
      <trkpt lat="46.64545" lon="5.98163">
        <ele>813.4128418</ele>
        <time>2011-08-06T09:16:58Z</time>
      </trkpt>
      <trkpt lat="46.64554" lon="5.98158">
        <ele>814.3740234</ele>
        <time>2011-08-06T09:17:02Z</time>
      </trkpt>
      <trkpt lat="46.6456" lon="5.98153">
        <ele>814.3740234</ele>
        <time>2011-08-06T09:17:05Z</time>
      </trkpt>
      <trkpt lat="46.6457" lon="5.98148">
        <ele>815.8161621</ele>
        <time>2011-08-06T09:17:09Z</time>
      </trkpt>
      <trkpt lat="46.64574" lon="5.98145">
        <ele>815.8161621</ele>
        <time>2011-08-06T09:17:11Z</time>
      </trkpt>
      <trkpt lat="46.64582" lon="5.98141">
        <ele>815.3354492</ele>
        <time>2011-08-06T09:17:15Z</time>
      </trkpt>
      <trkpt lat="46.6459" lon="5.98131">
        <ele>814.3740234</ele>
        <time>2011-08-06T09:17:20Z</time>
      </trkpt>
      <trkpt lat="46.64592" lon="5.98126">
        <ele>814.3740234</ele>
        <time>2011-08-06T09:17:22Z</time>
      </trkpt>
      <trkpt lat="46.64595" lon="5.98121">
        <ele>813.8933105</ele>
        <time>2011-08-06T09:17:24Z</time>
      </trkpt>
      <trkpt lat="46.64597" lon="5.98102">
        <ele>813.4128418</ele>
        <time>2011-08-06T09:17:29Z</time>
      </trkpt>
      <trkpt lat="46.64598" lon="5.98099">
        <ele>813.4128418</ele>
        <time>2011-08-06T09:17:30Z</time>
      </trkpt>
      <trkpt lat="46.64598" lon="5.98086">
        <ele>813.8933105</ele>
        <time>2011-08-06T09:17:33Z</time>
      </trkpt>
      <trkpt lat="46.64604" lon="5.98068">
        <ele>814.8547363</ele>
        <time>2011-08-06T09:17:38Z</time>
      </trkpt>
      <trkpt lat="46.64611" lon="5.9805">
        <ele>816.2966309</ele>
        <time>2011-08-06T09:17:44Z</time>
      </trkpt>
      <trkpt lat="46.64618" lon="5.98035">
        <ele>817.2580566</ele>
        <time>2011-08-06T09:17:49Z</time>
      </trkpt>
      <trkpt lat="46.64626" lon="5.98021">
        <ele>818.6999512</ele>
        <time>2011-08-06T09:17:54Z</time>
      </trkpt>
      <trkpt lat="46.64634" lon="5.98013">
        <ele>818.2192383</ele>
        <time>2011-08-06T09:17:58Z</time>
      </trkpt>
      <trkpt lat="46.64646" lon="5.98002">
        <ele>815.3354492</ele>
        <time>2011-08-06T09:18:04Z</time>
      </trkpt>
      <trkpt lat="46.64652" lon="5.97992">
        <ele>814.8547363</ele>
        <time>2011-08-06T09:18:08Z</time>
      </trkpt>
      <trkpt lat="46.64658" lon="5.97978">
        <ele>814.3740234</ele>
        <time>2011-08-06T09:18:14Z</time>
      </trkpt>
      <trkpt lat="46.64664" lon="5.97965">
        <ele>814.3740234</ele>
        <time>2011-08-06T09:18:19Z</time>
      </trkpt>
      <trkpt lat="46.64669" lon="5.97952">
        <ele>814.3740234</ele>
        <time>2011-08-06T09:18:24Z</time>
      </trkpt>
      <trkpt lat="46.64674" lon="5.97939">
        <ele>814.8547363</ele>
        <time>2011-08-06T09:18:29Z</time>
      </trkpt>
      <trkpt lat="46.64682" lon="5.97927">
        <ele>816.7773438</ele>
        <time>2011-08-06T09:18:34Z</time>
      </trkpt>
      <trkpt lat="46.64684" lon="5.9792">
        <ele>818.6999512</ele>
        <time>2011-08-06T09:18:36Z</time>
      </trkpt>
      <trkpt lat="46.6469" lon="5.97913">
        <ele>819.661377</ele>
        <time>2011-08-06T09:18:40Z</time>
      </trkpt>
      <trkpt lat="46.64698" lon="5.97894">
        <ele>821.5837402</ele>
        <time>2011-08-06T09:18:47Z</time>
      </trkpt>
      <trkpt lat="46.64707" lon="5.97874">
        <ele>822.0644531</ele>
        <time>2011-08-06T09:18:53Z</time>
      </trkpt>
      <trkpt lat="46.64713" lon="5.9786">
        <ele>820.6225586</ele>
        <time>2011-08-06T09:18:58Z</time>
      </trkpt>
      <trkpt lat="46.6472" lon="5.97849">
        <ele>819.1806641</ele>
        <time>2011-08-06T09:19:02Z</time>
      </trkpt>
      <trkpt lat="46.64728" lon="5.97836">
        <ele>819.1806641</ele>
        <time>2011-08-06T09:19:07Z</time>
      </trkpt>
      <trkpt lat="46.64729" lon="5.97832">
        <ele>820.6225586</ele>
        <time>2011-08-06T09:19:11Z</time>
      </trkpt>
      <trkpt lat="46.64734" lon="5.97821">
        <ele>823.0258789</ele>
        <time>2011-08-06T09:19:16Z</time>
      </trkpt>
      <trkpt lat="46.64745" lon="5.97808">
        <ele>823.9870605</ele>
        <time>2011-08-06T09:19:21Z</time>
      </trkpt>
      <trkpt lat="46.64755" lon="5.97794">
        <ele>823.9870605</ele>
        <time>2011-08-06T09:19:26Z</time>
      </trkpt>
      <trkpt lat="46.64757" lon="5.97789">
        <ele>823.9870605</ele>
        <time>2011-08-06T09:19:28Z</time>
      </trkpt>
      <trkpt lat="46.64763" lon="5.97772">
        <ele>824.4677734</ele>
        <time>2011-08-06T09:19:33Z</time>
      </trkpt>
      <trkpt lat="46.64771" lon="5.9776">
        <ele>821.1032715</ele>
        <time>2011-08-06T09:19:38Z</time>
      </trkpt>
      <trkpt lat="46.64784" lon="5.97738">
        <ele>816.2966309</ele>
        <time>2011-08-06T09:19:46Z</time>
      </trkpt>
      <trkpt lat="46.64788" lon="5.97719">
        <ele>818.2192383</ele>
        <time>2011-08-06T09:19:50Z</time>
      </trkpt>
      <trkpt lat="46.64791" lon="5.97707">
        <ele>817.2580566</ele>
        <time>2011-08-06T09:19:54Z</time>
      </trkpt>
      <trkpt lat="46.64794" lon="5.97691">
        <ele>816.7773438</ele>
        <time>2011-08-06T09:20:00Z</time>
      </trkpt>
      <trkpt lat="46.64797" lon="5.97675">
        <ele>815.8161621</ele>
        <time>2011-08-06T09:20:04Z</time>
      </trkpt>
      <trkpt lat="46.648" lon="5.97669">
        <ele>815.3354492</ele>
        <time>2011-08-06T09:20:06Z</time>
      </trkpt>
      <trkpt lat="46.64807" lon="5.97657">
        <ele>813.8933105</ele>
        <time>2011-08-06T09:20:11Z</time>
      </trkpt>
      <trkpt lat="46.64814" lon="5.97644">
        <ele>815.3354492</ele>
        <time>2011-08-06T09:20:16Z</time>
      </trkpt>
      <trkpt lat="46.64819" lon="5.97633">
        <ele>816.2966309</ele>
        <time>2011-08-06T09:20:20Z</time>
      </trkpt>
      <trkpt lat="46.64823" lon="5.97627">
        <ele>816.7773438</ele>
        <time>2011-08-06T09:20:22Z</time>
      </trkpt>
      <trkpt lat="46.64825" lon="5.97622">
        <ele>816.7773438</ele>
        <time>2011-08-06T09:20:24Z</time>
      </trkpt>
      <trkpt lat="46.64824" lon="5.97605">
        <ele>817.2580566</ele>
        <time>2011-08-06T09:20:28Z</time>
      </trkpt>
      <trkpt lat="46.64826" lon="5.97598">
        <ele>817.2580566</ele>
        <time>2011-08-06T09:20:30Z</time>
      </trkpt>
      <trkpt lat="46.64829" lon="5.9757">
        <ele>817.2580566</ele>
        <time>2011-08-06T09:20:37Z</time>
      </trkpt>
      <trkpt lat="46.64834" lon="5.97558">
        <ele>817.2580566</ele>
        <time>2011-08-06T09:20:41Z</time>
      </trkpt>
      <trkpt lat="46.64837" lon="5.97553">
        <ele>817.2580566</ele>
        <time>2011-08-06T09:20:43Z</time>
      </trkpt>
      <trkpt lat="46.64843" lon="5.97543">
        <ele>817.2580566</ele>
        <time>2011-08-06T09:20:47Z</time>
      </trkpt>
      <trkpt lat="46.64842" lon="5.97527">
        <ele>816.2966309</ele>
        <time>2011-08-06T09:20:52Z</time>
      </trkpt>
      <trkpt lat="46.64841" lon="5.9752">
        <ele>815.3354492</ele>
        <time>2011-08-06T09:20:54Z</time>
      </trkpt>
      <trkpt lat="46.64837" lon="5.97496">
        <ele>811.4899902</ele>
        <time>2011-08-06T09:21:01Z</time>
      </trkpt>
      <trkpt lat="46.64836" lon="5.9748">
        <ele>808.1254883</ele>
        <time>2011-08-06T09:21:05Z</time>
      </trkpt>
      <trkpt lat="46.64831" lon="5.97458">
        <ele>808.1254883</ele>
        <time>2011-08-06T09:21:09Z</time>
      </trkpt>
      <trkpt lat="46.64838" lon="5.97439">
        <ele>811.4899902</ele>
        <time>2011-08-06T09:21:15Z</time>
      </trkpt>
      <trkpt lat="46.64849" lon="5.97433">
        <ele>812.9321289</ele>
        <time>2011-08-06T09:21:19Z</time>
      </trkpt>
      <trkpt lat="46.64856" lon="5.97426">
        <ele>812.9321289</ele>
        <time>2011-08-06T09:21:22Z</time>
      </trkpt>
      <trkpt lat="46.64863" lon="5.97408">
        <ele>812.9321289</ele>
        <time>2011-08-06T09:21:27Z</time>
      </trkpt>
      <trkpt lat="46.64865" lon="5.97399">
        <ele>812.9321289</ele>
        <time>2011-08-06T09:21:30Z</time>
      </trkpt>
      <trkpt lat="46.64861" lon="5.97377">
        <ele>811.9707031</ele>
        <time>2011-08-06T09:21:36Z</time>
      </trkpt>
      <trkpt lat="46.64853" lon="5.97361">
        <ele>812.9321289</ele>
        <time>2011-08-06T09:21:41Z</time>
      </trkpt>
      <trkpt lat="46.6485" lon="5.97356">
        <ele>813.8933105</ele>
        <time>2011-08-06T09:21:43Z</time>
      </trkpt>
      <trkpt lat="46.64843" lon="5.97336">
        <ele>813.8933105</ele>
        <time>2011-08-06T09:21:48Z</time>
      </trkpt>
      <trkpt lat="46.64837" lon="5.97322">
        <ele>813.8933105</ele>
        <time>2011-08-06T09:21:52Z</time>
      </trkpt>
      <trkpt lat="46.64828" lon="5.97308">
        <ele>812.451416</ele>
        <time>2011-08-06T09:21:57Z</time>
      </trkpt>
      <trkpt lat="46.64819" lon="5.97291">
        <ele>811.4899902</ele>
        <time>2011-08-06T09:22:02Z</time>
      </trkpt>
      <trkpt lat="46.64815" lon="5.97277">
        <ele>809.5673828</ele>
        <time>2011-08-06T09:22:06Z</time>
      </trkpt>
      <trkpt lat="46.64818" lon="5.97259">
        <ele>807.6447754</ele>
        <time>2011-08-06T09:22:10Z</time>
      </trkpt>
      <trkpt lat="46.64827" lon="5.97237">
        <ele>804.2802734</ele>
        <time>2011-08-06T09:22:16Z</time>
      </trkpt>
      <trkpt lat="46.64837" lon="5.97233">
        <ele>803.3188477</ele>
        <time>2011-08-06T09:22:20Z</time>
      </trkpt>
      <trkpt lat="46.64848" lon="5.97236">
        <ele>801.8769531</ele>
        <time>2011-08-06T09:22:24Z</time>
      </trkpt>
      <trkpt lat="46.64861" lon="5.97247">
        <ele>799.9543457</ele>
        <time>2011-08-06T09:22:29Z</time>
      </trkpt>
      <trkpt lat="46.64872" lon="5.97257">
        <ele>798.9929199</ele>
        <time>2011-08-06T09:22:34Z</time>
      </trkpt>
      <trkpt lat="46.64883" lon="5.97265">
        <ele>799.4736328</ele>
        <time>2011-08-06T09:22:38Z</time>
      </trkpt>
      <trkpt lat="46.64892" lon="5.97268">
        <ele>800.9155273</ele>
        <time>2011-08-06T09:22:41Z</time>
      </trkpt>
      <trkpt lat="46.64903" lon="5.9727">
        <ele>802.3574219</ele>
        <time>2011-08-06T09:22:45Z</time>
      </trkpt>
      <trkpt lat="46.64906" lon="5.97271">
        <ele>803.3188477</ele>
        <time>2011-08-06T09:22:46Z</time>
      </trkpt>
      <trkpt lat="46.64922" lon="5.97274">
        <ele>805.2414551</ele>
        <time>2011-08-06T09:22:52Z</time>
      </trkpt>
      <trkpt lat="46.64933" lon="5.9728">
        <ele>808.1254883</ele>
        <time>2011-08-06T09:22:57Z</time>
      </trkpt>
      <trkpt lat="46.64942" lon="5.97287">
        <ele>812.451416</ele>
        <time>2011-08-06T09:23:02Z</time>
      </trkpt>
      <trkpt lat="46.64952" lon="5.97288">
        <ele>817.7385254</ele>
        <time>2011-08-06T09:23:07Z</time>
      </trkpt>
      <trkpt lat="46.64964" lon="5.97286">
        <ele>824.9484863</ele>
        <time>2011-08-06T09:23:12Z</time>
      </trkpt>
      <trkpt lat="46.64967" lon="5.97284">
        <ele>826.8710938</ele>
        <time>2011-08-06T09:23:14Z</time>
      </trkpt>
      <trkpt lat="46.64975" lon="5.97278">
        <ele>829.2744141</ele>
        <time>2011-08-06T09:23:19Z</time>
      </trkpt>
      <trkpt lat="46.64983" lon="5.97271">
        <ele>830.2358398</ele>
        <time>2011-08-06T09:23:24Z</time>
      </trkpt>
      <trkpt lat="46.64985" lon="5.97269">
        <ele>830.7165527</ele>
        <time>2011-08-06T09:23:25Z</time>
      </trkpt>
      <trkpt lat="46.64996" lon="5.9726">
        <ele>834.0810547</ele>
        <time>2011-08-06T09:23:31Z</time>
      </trkpt>
      <trkpt lat="46.65005" lon="5.97253">
        <ele>835.5229492</ele>
        <time>2011-08-06T09:23:35Z</time>
      </trkpt>
      <trkpt lat="46.65019" lon="5.97246">
        <ele>836.9648438</ele>
        <time>2011-08-06T09:23:41Z</time>
      </trkpt>
      <trkpt lat="46.65033" lon="5.97249">
        <ele>831.1972656</ele>
        <time>2011-08-06T09:23:46Z</time>
      </trkpt>
      <trkpt lat="46.65042" lon="5.97244">
        <ele>829.755127</ele>
        <time>2011-08-06T09:23:50Z</time>
      </trkpt>
      <trkpt lat="46.65052" lon="5.97239">
        <ele>827.3518066</ele>
        <time>2011-08-06T09:23:55Z</time>
      </trkpt>
      <trkpt lat="46.65062" lon="5.97234">
        <ele>823.9870605</ele>
        <time>2011-08-06T09:23:59Z</time>
      </trkpt>
      <trkpt lat="46.65069" lon="5.97222">
        <ele>818.6999512</ele>
        <time>2011-08-06T09:24:03Z</time>
      </trkpt>
      <trkpt lat="46.65082" lon="5.97211">
        <ele>807.1640625</ele>
        <time>2011-08-06T09:24:09Z</time>
      </trkpt>
      <trkpt lat="46.65082" lon="5.9721">
        <ele>808.605957</ele>
        <time>2011-08-06T09:24:10Z</time>
      </trkpt>
      <trkpt lat="46.65077" lon="5.9719">
        <ele>799.4736328</ele>
        <time>2011-08-06T09:24:16Z</time>
      </trkpt>
      <trkpt lat="46.65076" lon="5.97182">
        <ele>797.5510254</ele>
        <time>2011-08-06T09:24:18Z</time>
      </trkpt>
      <trkpt lat="46.65072" lon="5.97148">
        <ele>790.3410645</ele>
        <time>2011-08-06T09:24:26Z</time>
      </trkpt>
      <trkpt lat="46.6507" lon="5.97131">
        <ele>791.3022461</ele>
        <time>2011-08-06T09:24:30Z</time>
      </trkpt>
      <trkpt lat="46.65071" lon="5.97111">
        <ele>794.1862793</ele>
        <time>2011-08-06T09:24:35Z</time>
      </trkpt>
      <trkpt lat="46.65072" lon="5.97087">
        <ele>792.2636719</ele>
        <time>2011-08-06T09:24:41Z</time>
      </trkpt>
      <trkpt lat="46.65072" lon="5.97067">
        <ele>791.3022461</ele>
        <time>2011-08-06T09:24:46Z</time>
      </trkpt>
      <trkpt lat="46.65068" lon="5.97047">
        <ele>789.3796387</ele>
        <time>2011-08-06T09:24:50Z</time>
      </trkpt>
      <trkpt lat="46.65069" lon="5.97027">
        <ele>788.418457</ele>
        <time>2011-08-06T09:24:55Z</time>
      </trkpt>
      <trkpt lat="46.65071" lon="5.97011">
        <ele>787.9377441</ele>
        <time>2011-08-06T09:24:59Z</time>
      </trkpt>
      <trkpt lat="46.65068" lon="5.96982">
        <ele>786.9763184</ele>
        <time>2011-08-06T09:25:05Z</time>
      </trkpt>
      <trkpt lat="46.65068" lon="5.96964">
        <ele>786.0151367</ele>
        <time>2011-08-06T09:25:09Z</time>
      </trkpt>
      <trkpt lat="46.65065" lon="5.96941">
        <ele>785.0539551</ele>
        <time>2011-08-06T09:25:14Z</time>
      </trkpt>
      <trkpt lat="46.65065" lon="5.96921">
        <ele>781.689209</ele>
        <time>2011-08-06T09:25:19Z</time>
      </trkpt>
      <trkpt lat="46.6507" lon="5.96895">
        <ele>781.2087402</ele>
        <time>2011-08-06T09:25:25Z</time>
      </trkpt>
      <trkpt lat="46.65073" lon="5.96877">
        <ele>778.3244629</ele>
        <time>2011-08-06T09:25:30Z</time>
      </trkpt>
      <trkpt lat="46.65075" lon="5.96855">
        <ele>774.479248</ele>
        <time>2011-08-06T09:25:35Z</time>
      </trkpt>
      <trkpt lat="46.65078" lon="5.96838">
        <ele>771.5952148</ele>
        <time>2011-08-06T09:25:39Z</time>
      </trkpt>
      <trkpt lat="46.6508" lon="5.96828">
        <ele>769.1921387</ele>
        <time>2011-08-06T09:25:41Z</time>
      </trkpt>
      <trkpt lat="46.65084" lon="5.96805">
        <ele>768.2307129</ele>
        <time>2011-08-06T09:25:47Z</time>
      </trkpt>
      <trkpt lat="46.65089" lon="5.96793">
        <ele>769.6728516</ele>
        <time>2011-08-06T09:25:50Z</time>
      </trkpt>
      <trkpt lat="46.65089" lon="5.96772">
        <ele>768.7114258</ele>
        <time>2011-08-06T09:25:55Z</time>
      </trkpt>
      <trkpt lat="46.65086" lon="5.96756">
        <ele>772.0759277</ele>
        <time>2011-08-06T09:25:59Z</time>
      </trkpt>
      <trkpt lat="46.65083" lon="5.96734">
        <ele>776.8825684</ele>
        <time>2011-08-06T09:26:04Z</time>
      </trkpt>
      <trkpt lat="46.65077" lon="5.96712">
        <ele>778.3244629</ele>
        <time>2011-08-06T09:26:09Z</time>
      </trkpt>
      <trkpt lat="46.65075" lon="5.96692">
        <ele>781.689209</ele>
        <time>2011-08-06T09:26:13Z</time>
      </trkpt>
      <trkpt lat="46.65071" lon="5.96667">
        <ele>778.8051758</ele>
        <time>2011-08-06T09:26:18Z</time>
      </trkpt>
      <trkpt lat="46.65071" lon="5.96648">
        <ele>773.0373535</ele>
        <time>2011-08-06T09:26:23Z</time>
      </trkpt>
      <trkpt lat="46.65069" lon="5.96626">
        <ele>771.1147461</ele>
        <time>2011-08-06T09:26:28Z</time>
      </trkpt>
      <trkpt lat="46.65067" lon="5.96606">
        <ele>768.7114258</ele>
        <time>2011-08-06T09:26:33Z</time>
      </trkpt>
      <trkpt lat="46.65064" lon="5.96589">
        <ele>764.8662109</ele>
        <time>2011-08-06T09:26:38Z</time>
      </trkpt>
      <trkpt lat="46.65051" lon="5.96571">
        <ele>762.9433594</ele>
        <time>2011-08-06T09:26:44Z</time>
      </trkpt>
      <trkpt lat="46.65044" lon="5.96555">
        <ele>762.4626465</ele>
        <time>2011-08-06T09:26:49Z</time>
      </trkpt>
      <trkpt lat="46.65038" lon="5.96542">
        <ele>763.904541</ele>
        <time>2011-08-06T09:26:53Z</time>
      </trkpt>
      <trkpt lat="46.65036" lon="5.96532">
        <ele>765.8276367</ele>
        <time>2011-08-06T09:26:56Z</time>
      </trkpt>
      <trkpt lat="46.65033" lon="5.96517">
        <ele>764.8662109</ele>
        <time>2011-08-06T09:27:01Z</time>
      </trkpt>
      <trkpt lat="46.65032" lon="5.96507">
        <ele>763.904541</ele>
        <time>2011-08-06T09:27:04Z</time>
      </trkpt>
      <trkpt lat="46.65026" lon="5.96487">
        <ele>762.4626465</ele>
        <time>2011-08-06T09:27:09Z</time>
      </trkpt>
      <trkpt lat="46.65016" lon="5.96465">
        <ele>760.0593262</ele>
        <time>2011-08-06T09:27:15Z</time>
      </trkpt>
      <trkpt lat="46.65012" lon="5.96452">
        <ele>759.0981445</ele>
        <time>2011-08-06T09:27:18Z</time>
      </trkpt>
      <trkpt lat="46.65006" lon="5.96429">
        <ele>761.020752</ele>
        <time>2011-08-06T09:27:25Z</time>
      </trkpt>
      <trkpt lat="46.65002" lon="5.9642">
        <ele>761.5014648</ele>
        <time>2011-08-06T09:27:28Z</time>
      </trkpt>
      <trkpt lat="46.64996" lon="5.96408">
        <ele>763.4240723</ele>
        <time>2011-08-06T09:27:33Z</time>
      </trkpt>
      <trkpt lat="46.6499" lon="5.96394">
        <ele>761.5014648</ele>
        <time>2011-08-06T09:27:39Z</time>
      </trkpt>
      <trkpt lat="46.64978" lon="5.96383">
        <ele>764.385498</ele>
        <time>2011-08-06T09:27:45Z</time>
      </trkpt>
      <trkpt lat="46.64968" lon="5.96379">
        <ele>763.904541</ele>
        <time>2011-08-06T09:27:49Z</time>
      </trkpt>
      <trkpt lat="46.64958" lon="5.96369">
        <ele>767.2695313</ele>
        <time>2011-08-06T09:27:55Z</time>
      </trkpt>
      <trkpt lat="46.64953" lon="5.96356">
        <ele>767.2695313</ele>
        <time>2011-08-06T09:28:00Z</time>
      </trkpt>
      <trkpt lat="46.64948" lon="5.96339">
        <ele>767.2695313</ele>
        <time>2011-08-06T09:28:05Z</time>
      </trkpt>
      <trkpt lat="46.64945" lon="5.9633">
        <ele>766.7888184</ele>
        <time>2011-08-06T09:28:08Z</time>
      </trkpt>
      <trkpt lat="46.6494" lon="5.96316">
        <ele>767.2695313</ele>
        <time>2011-08-06T09:28:14Z</time>
      </trkpt>
      <trkpt lat="46.64934" lon="5.96303">
        <ele>765.8276367</ele>
        <time>2011-08-06T09:28:19Z</time>
      </trkpt>
      <trkpt lat="46.64931" lon="5.96294">
        <ele>766.3081055</ele>
        <time>2011-08-06T09:28:22Z</time>
      </trkpt>
      <trkpt lat="46.64931" lon="5.96274">
        <ele>768.7114258</ele>
        <time>2011-08-06T09:28:29Z</time>
      </trkpt>
      <trkpt lat="46.64929" lon="5.96264">
        <ele>771.1147461</ele>
        <time>2011-08-06T09:28:34Z</time>
      </trkpt>
      <trkpt lat="46.64926" lon="5.96255">
        <ele>771.5952148</ele>
        <time>2011-08-06T09:28:38Z</time>
      </trkpt>
      <trkpt lat="46.64926" lon="5.96249">
        <ele>770.1533203</ele>
        <time>2011-08-06T09:28:40Z</time>
      </trkpt>
      <trkpt lat="46.64924" lon="5.96243">
        <ele>772.5566406</ele>
        <time>2011-08-06T09:28:42Z</time>
      </trkpt>
      <trkpt lat="46.64923" lon="5.96233">
        <ele>773.9985352</ele>
        <time>2011-08-06T09:28:45Z</time>
      </trkpt>
      <trkpt lat="46.64915" lon="5.96217">
        <ele>775.4404297</ele>
        <time>2011-08-06T09:28:51Z</time>
      </trkpt>
      <trkpt lat="46.64911" lon="5.96209">
        <ele>776.4018555</ele>
        <time>2011-08-06T09:28:55Z</time>
      </trkpt>
      <trkpt lat="46.64909" lon="5.96207">
        <ele>776.4018555</ele>
        <time>2011-08-06T09:28:56Z</time>
      </trkpt>
      <trkpt lat="46.64902" lon="5.96189">
        <ele>774.9599609</ele>
        <time>2011-08-06T09:29:02Z</time>
      </trkpt>
      <trkpt lat="46.64897" lon="5.96176">
        <ele>774.9599609</ele>
        <time>2011-08-06T09:29:07Z</time>
      </trkpt>
      <trkpt lat="46.64893" lon="5.96166">
        <ele>776.8825684</ele>
        <time>2011-08-06T09:29:11Z</time>
      </trkpt>
      <trkpt lat="46.64887" lon="5.96157">
        <ele>779.2856445</ele>
        <time>2011-08-06T09:29:15Z</time>
      </trkpt>
      <trkpt lat="46.64879" lon="5.96142">
        <ele>777.3632813</ele>
        <time>2011-08-06T09:29:21Z</time>
      </trkpt>
      <trkpt lat="46.64875" lon="5.96134">
        <ele>777.84375</ele>
        <time>2011-08-06T09:29:24Z</time>
      </trkpt>
      <trkpt lat="46.64867" lon="5.96112">
        <ele>771.5952148</ele>
        <time>2011-08-06T09:29:31Z</time>
      </trkpt>
      <trkpt lat="46.64864" lon="5.961">
        <ele>772.5566406</ele>
        <time>2011-08-06T09:29:35Z</time>
      </trkpt>
      <trkpt lat="46.64861" lon="5.96088">
        <ele>774.479248</ele>
        <time>2011-08-06T09:29:39Z</time>
      </trkpt>
      <trkpt lat="46.64861" lon="5.96072">
        <ele>773.0373535</ele>
        <time>2011-08-06T09:29:45Z</time>
      </trkpt>
      <trkpt lat="46.64861" lon="5.96059">
        <ele>771.5952148</ele>
        <time>2011-08-06T09:29:49Z</time>
      </trkpt>
      <trkpt lat="46.6486" lon="5.9605">
        <ele>770.1533203</ele>
        <time>2011-08-06T09:29:52Z</time>
      </trkpt>
      <trkpt lat="46.6486" lon="5.96039">
        <ele>768.2307129</ele>
        <time>2011-08-06T09:29:55Z</time>
      </trkpt>
      <trkpt lat="46.64856" lon="5.96021">
        <ele>766.7888184</ele>
        <time>2011-08-06T09:29:59Z</time>
      </trkpt>
      <trkpt lat="46.64853" lon="5.95998">
        <ele>768.7114258</ele>
        <time>2011-08-06T09:30:05Z</time>
      </trkpt>
      <trkpt lat="46.64851" lon="5.95977">
        <ele>764.8662109</ele>
        <time>2011-08-06T09:30:10Z</time>
      </trkpt>
      <trkpt lat="46.64849" lon="5.95958">
        <ele>764.385498</ele>
        <time>2011-08-06T09:30:14Z</time>
      </trkpt>
      <trkpt lat="46.64846" lon="5.95938">
        <ele>765.3469238</ele>
        <time>2011-08-06T09:30:19Z</time>
      </trkpt>
      <trkpt lat="46.6484" lon="5.95917">
        <ele>764.385498</ele>
        <time>2011-08-06T09:30:25Z</time>
      </trkpt>
      <trkpt lat="46.64831" lon="5.95905">
        <ele>761.9821777</ele>
        <time>2011-08-06T09:30:30Z</time>
      </trkpt>
      <trkpt lat="46.64828" lon="5.95891">
        <ele>759.5788574</ele>
        <time>2011-08-06T09:30:34Z</time>
      </trkpt>
      <trkpt lat="46.64822" lon="5.95874">
        <ele>758.1369629</ele>
        <time>2011-08-06T09:30:40Z</time>
      </trkpt>
      <trkpt lat="46.6482" lon="5.95861">
        <ele>756.6948242</ele>
        <time>2011-08-06T09:30:44Z</time>
      </trkpt>
      <trkpt lat="46.64816" lon="5.95838">
        <ele>760.5400391</ele>
        <time>2011-08-06T09:30:50Z</time>
      </trkpt>
      <trkpt lat="46.64816" lon="5.95836">
        <ele>761.020752</ele>
        <time>2011-08-06T09:30:51Z</time>
      </trkpt>
      <trkpt lat="46.64815" lon="5.95829">
        <ele>764.8662109</ele>
        <time>2011-08-06T09:30:53Z</time>
      </trkpt>
      <trkpt lat="46.64813" lon="5.9581">
        <ele>761.020752</ele>
        <time>2011-08-06T09:30:59Z</time>
      </trkpt>
      <trkpt lat="46.64809" lon="5.95795">
        <ele>763.4240723</ele>
        <time>2011-08-06T09:31:03Z</time>
      </trkpt>
      <trkpt lat="46.64803" lon="5.95778">
        <ele>766.3081055</ele>
        <time>2011-08-06T09:31:09Z</time>
      </trkpt>
      <trkpt lat="46.64802" lon="5.95762">
        <ele>771.1147461</ele>
        <time>2011-08-06T09:31:14Z</time>
      </trkpt>
      <trkpt lat="46.64798" lon="5.95744">
        <ele>768.2307129</ele>
        <time>2011-08-06T09:31:19Z</time>
      </trkpt>
      <trkpt lat="46.64793" lon="5.95733">
        <ele>769.1921387</ele>
        <time>2011-08-06T09:31:22Z</time>
      </trkpt>
      <trkpt lat="46.64785" lon="5.95714">
        <ele>771.1147461</ele>
        <time>2011-08-06T09:31:28Z</time>
      </trkpt>
      <trkpt lat="46.64781" lon="5.95703">
        <ele>774.9599609</ele>
        <time>2011-08-06T09:31:32Z</time>
      </trkpt>
      <trkpt lat="46.64776" lon="5.95686">
        <ele>773.9985352</ele>
        <time>2011-08-06T09:31:38Z</time>
      </trkpt>
      <trkpt lat="46.64773" lon="5.95673">
        <ele>771.5952148</ele>
        <time>2011-08-06T09:31:43Z</time>
      </trkpt>
      <trkpt lat="46.6477" lon="5.95661">
        <ele>766.7888184</ele>
        <time>2011-08-06T09:31:47Z</time>
      </trkpt>
      <trkpt lat="46.64766" lon="5.95647">
        <ele>767.75</ele>
        <time>2011-08-06T09:31:52Z</time>
      </trkpt>
      <trkpt lat="46.64759" lon="5.9563">
        <ele>768.7114258</ele>
        <time>2011-08-06T09:31:59Z</time>
      </trkpt>
      <trkpt lat="46.64754" lon="5.95618">
        <ele>770.6340332</ele>
        <time>2011-08-06T09:32:04Z</time>
      </trkpt>
      <trkpt lat="46.64752" lon="5.95615">
        <ele>770.6340332</ele>
        <time>2011-08-06T09:32:05Z</time>
      </trkpt>
      <trkpt lat="46.64748" lon="5.95596">
        <ele>771.1147461</ele>
        <time>2011-08-06T09:32:11Z</time>
      </trkpt>
      <trkpt lat="46.64744" lon="5.95576">
        <ele>772.5566406</ele>
        <time>2011-08-06T09:32:17Z</time>
      </trkpt>
      <trkpt lat="46.64743" lon="5.95573">
        <ele>772.0759277</ele>
        <time>2011-08-06T09:32:19Z</time>
      </trkpt>
      <trkpt lat="46.64739" lon="5.95556">
        <ele>770.6340332</ele>
        <time>2011-08-06T09:32:24Z</time>
      </trkpt>
      <trkpt lat="46.64737" lon="5.95549">
        <ele>771.5952148</ele>
        <time>2011-08-06T09:32:26Z</time>
      </trkpt>
      <trkpt lat="46.64731" lon="5.9553">
        <ele>773.5180664</ele>
        <time>2011-08-06T09:32:32Z</time>
      </trkpt>
      <trkpt lat="46.64726" lon="5.95512">
        <ele>773.9985352</ele>
        <time>2011-08-06T09:32:38Z</time>
      </trkpt>
      <trkpt lat="46.64722" lon="5.95504">
        <ele>773.5180664</ele>
        <time>2011-08-06T09:32:41Z</time>
      </trkpt>
      <trkpt lat="46.64717" lon="5.95487">
        <ele>773.9985352</ele>
        <time>2011-08-06T09:32:47Z</time>
      </trkpt>
      <trkpt lat="46.64713" lon="5.95476">
        <ele>776.4018555</ele>
        <time>2011-08-06T09:32:51Z</time>
      </trkpt>
      <trkpt lat="46.64708" lon="5.9546">
        <ele>775.4404297</ele>
        <time>2011-08-06T09:32:57Z</time>
      </trkpt>
      <trkpt lat="46.64705" lon="5.95441">
        <ele>773.0373535</ele>
        <time>2011-08-06T09:33:02Z</time>
      </trkpt>
      <trkpt lat="46.64704" lon="5.95426">
        <ele>772.5566406</ele>
        <time>2011-08-06T09:33:06Z</time>
      </trkpt>
      <trkpt lat="46.64699" lon="5.95408">
        <ele>773.5180664</ele>
        <time>2011-08-06T09:33:11Z</time>
      </trkpt>
      <trkpt lat="46.64696" lon="5.95393">
        <ele>775.4404297</ele>
        <time>2011-08-06T09:33:15Z</time>
      </trkpt>
      <trkpt lat="46.64692" lon="5.95377">
        <ele>776.4018555</ele>
        <time>2011-08-06T09:33:20Z</time>
      </trkpt>
      <trkpt lat="46.64689" lon="5.95365">
        <ele>774.9599609</ele>
        <time>2011-08-06T09:33:24Z</time>
      </trkpt>
      <trkpt lat="46.64689" lon="5.95362">
        <ele>773.5180664</ele>
        <time>2011-08-06T09:33:25Z</time>
      </trkpt>
      <trkpt lat="46.64684" lon="5.95351">
        <ele>770.6340332</ele>
        <time>2011-08-06T09:33:30Z</time>
      </trkpt>
      <trkpt lat="46.64671" lon="5.95328">
        <ele>766.3081055</ele>
        <time>2011-08-06T09:33:38Z</time>
      </trkpt>
      <trkpt lat="46.64663" lon="5.95311">
        <ele>766.7888184</ele>
        <time>2011-08-06T09:33:43Z</time>
      </trkpt>
      <trkpt lat="46.64656" lon="5.95294">
        <ele>764.8662109</ele>
        <time>2011-08-06T09:33:48Z</time>
      </trkpt>
      <trkpt lat="46.64648" lon="5.95282">
        <ele>761.9821777</ele>
        <time>2011-08-06T09:33:52Z</time>
      </trkpt>
      <trkpt lat="46.64641" lon="5.95266">
        <ele>759.5788574</ele>
        <time>2011-08-06T09:33:57Z</time>
      </trkpt>
      <trkpt lat="46.64633" lon="5.9524">
        <ele>760.0593262</ele>
        <time>2011-08-06T09:34:03Z</time>
      </trkpt>
      <trkpt lat="46.64629" lon="5.95223">
        <ele>758.6174316</ele>
        <time>2011-08-06T09:34:07Z</time>
      </trkpt>
      <trkpt lat="46.64626" lon="5.95206">
        <ele>756.6948242</ele>
        <time>2011-08-06T09:34:12Z</time>
      </trkpt>
      <trkpt lat="46.64622" lon="5.95193">
        <ele>755.7336426</ele>
        <time>2011-08-06T09:34:16Z</time>
      </trkpt>
      <trkpt lat="46.64616" lon="5.95174">
        <ele>753.8110352</ele>
        <time>2011-08-06T09:34:22Z</time>
      </trkpt>
      <trkpt lat="46.64614" lon="5.95168">
        <ele>753.3303223</ele>
        <time>2011-08-06T09:34:24Z</time>
      </trkpt>
      <trkpt lat="46.64607" lon="5.95148">
        <ele>754.7722168</ele>
        <time>2011-08-06T09:34:30Z</time>
      </trkpt>
      <trkpt lat="46.646" lon="5.95128">
        <ele>755.2529297</ele>
        <time>2011-08-06T09:34:36Z</time>
      </trkpt>
      <trkpt lat="46.64592" lon="5.95107">
        <ele>758.1369629</ele>
        <time>2011-08-06T09:34:42Z</time>
      </trkpt>
      <trkpt lat="46.64585" lon="5.95085">
        <ele>760.5400391</ele>
        <time>2011-08-06T09:34:48Z</time>
      </trkpt>
      <trkpt lat="46.64581" lon="5.95065">
        <ele>760.5400391</ele>
        <time>2011-08-06T09:34:54Z</time>
      </trkpt>
      <trkpt lat="46.64575" lon="5.9505">
        <ele>760.0593262</ele>
        <time>2011-08-06T09:34:59Z</time>
      </trkpt>
      <trkpt lat="46.64569" lon="5.95035">
        <ele>758.6174316</ele>
        <time>2011-08-06T09:35:04Z</time>
      </trkpt>
      <trkpt lat="46.64561" lon="5.95015">
        <ele>758.6174316</ele>
        <time>2011-08-06T09:35:10Z</time>
      </trkpt>
      <trkpt lat="46.64556" lon="5.95003">
        <ele>757.65625</ele>
        <time>2011-08-06T09:35:14Z</time>
      </trkpt>
      <trkpt lat="46.6455" lon="5.94989">
        <ele>757.65625</ele>
        <time>2011-08-06T09:35:18Z</time>
      </trkpt>
      <trkpt lat="46.64546" lon="5.94974">
        <ele>757.1755371</ele>
        <time>2011-08-06T09:35:23Z</time>
      </trkpt>
      <trkpt lat="46.64544" lon="5.94954">
        <ele>756.6948242</ele>
        <time>2011-08-06T09:35:29Z</time>
      </trkpt>
      <trkpt lat="46.64541" lon="5.94939">
        <ele>758.1369629</ele>
        <time>2011-08-06T09:35:34Z</time>
      </trkpt>
      <trkpt lat="46.64537" lon="5.94924">
        <ele>757.65625</ele>
        <time>2011-08-06T09:35:39Z</time>
      </trkpt>
      <trkpt lat="46.64536" lon="5.94918">
        <ele>757.65625</ele>
        <time>2011-08-06T09:35:41Z</time>
      </trkpt>
      <trkpt lat="46.64531" lon="5.949">
        <ele>759.0981445</ele>
        <time>2011-08-06T09:35:47Z</time>
      </trkpt>
      <trkpt lat="46.64527" lon="5.94883">
        <ele>761.020752</ele>
        <time>2011-08-06T09:35:53Z</time>
      </trkpt>
      <trkpt lat="46.64523" lon="5.94869">
        <ele>760.0593262</ele>
        <time>2011-08-06T09:35:58Z</time>
      </trkpt>
      <trkpt lat="46.64518" lon="5.94852">
        <ele>760.0593262</ele>
        <time>2011-08-06T09:36:04Z</time>
      </trkpt>
      <trkpt lat="46.64514" lon="5.94838">
        <ele>760.5400391</ele>
        <time>2011-08-06T09:36:09Z</time>
      </trkpt>
      <trkpt lat="46.64509" lon="5.94815">
        <ele>761.020752</ele>
        <time>2011-08-06T09:36:17Z</time>
      </trkpt>
      <trkpt lat="46.64503" lon="5.948">
        <ele>761.5014648</ele>
        <time>2011-08-06T09:36:22Z</time>
      </trkpt>
      <trkpt lat="46.64499" lon="5.94782">
        <ele>762.9433594</ele>
        <time>2011-08-06T09:36:28Z</time>
      </trkpt>
      <trkpt lat="46.64495" lon="5.94765">
        <ele>762.9433594</ele>
        <time>2011-08-06T09:36:33Z</time>
      </trkpt>
      <trkpt lat="46.64491" lon="5.94751">
        <ele>763.904541</ele>
        <time>2011-08-06T09:36:37Z</time>
      </trkpt>
      <trkpt lat="46.6449" lon="5.9474">
        <ele>764.8662109</ele>
        <time>2011-08-06T09:36:41Z</time>
      </trkpt>
      <trkpt lat="46.6449" lon="5.94736">
        <ele>765.3469238</ele>
        <time>2011-08-06T09:36:42Z</time>
      </trkpt>
      <trkpt lat="46.64487" lon="5.9472">
        <ele>764.8662109</ele>
        <time>2011-08-06T09:36:47Z</time>
      </trkpt>
      <trkpt lat="46.64481" lon="5.94698">
        <ele>764.385498</ele>
        <time>2011-08-06T09:36:54Z</time>
      </trkpt>
      <trkpt lat="46.64476" lon="5.9468">
        <ele>762.9433594</ele>
        <time>2011-08-06T09:37:00Z</time>
      </trkpt>
      <trkpt lat="46.64474" lon="5.94663">
        <ele>765.3469238</ele>
        <time>2011-08-06T09:37:05Z</time>
      </trkpt>
      <trkpt lat="46.64473" lon="5.94656">
        <ele>764.385498</ele>
        <time>2011-08-06T09:37:07Z</time>
      </trkpt>
      <trkpt lat="46.6447" lon="5.94628">
        <ele>760.5400391</ele>
        <time>2011-08-06T09:37:15Z</time>
      </trkpt>
      <trkpt lat="46.64464" lon="5.94606">
        <ele>759.5788574</ele>
        <time>2011-08-06T09:37:21Z</time>
      </trkpt>
      <trkpt lat="46.64463" lon="5.94603">
        <ele>759.5788574</ele>
        <time>2011-08-06T09:37:22Z</time>
      </trkpt>
      <trkpt lat="46.6446" lon="5.94587">
        <ele>759.5788574</ele>
        <time>2011-08-06T09:37:26Z</time>
      </trkpt>
      <trkpt lat="46.64458" lon="5.94569">
        <ele>761.9821777</ele>
        <time>2011-08-06T09:37:31Z</time>
      </trkpt>
      <trkpt lat="46.64456" lon="5.94558">
        <ele>759.0981445</ele>
        <time>2011-08-06T09:37:34Z</time>
      </trkpt>
      <trkpt lat="46.64451" lon="5.94541">
        <ele>756.2141113</ele>
        <time>2011-08-06T09:37:40Z</time>
      </trkpt>
      <trkpt lat="46.64446" lon="5.94528">
        <ele>755.7336426</ele>
        <time>2011-08-06T09:37:44Z</time>
      </trkpt>
      <trkpt lat="46.64442" lon="5.94522">
        <ele>754.291748</ele>
        <time>2011-08-06T09:37:46Z</time>
      </trkpt>
      <trkpt lat="46.64436" lon="5.94504">
        <ele>754.291748</ele>
        <time>2011-08-06T09:37:51Z</time>
      </trkpt>
      <trkpt lat="46.6443" lon="5.94487">
        <ele>756.6948242</ele>
        <time>2011-08-06T09:37:56Z</time>
      </trkpt>
      <trkpt lat="46.64423" lon="5.94468">
        <ele>757.65625</ele>
        <time>2011-08-06T09:38:01Z</time>
      </trkpt>
      <trkpt lat="46.64414" lon="5.94447">
        <ele>758.6174316</ele>
        <time>2011-08-06T09:38:07Z</time>
      </trkpt>
      <trkpt lat="46.64406" lon="5.94434">
        <ele>758.1369629</ele>
        <time>2011-08-06T09:38:12Z</time>
      </trkpt>
      <trkpt lat="46.64397" lon="5.94422">
        <ele>758.6174316</ele>
        <time>2011-08-06T09:38:17Z</time>
      </trkpt>
      <trkpt lat="46.64385" lon="5.94412">
        <ele>756.2141113</ele>
        <time>2011-08-06T09:38:22Z</time>
      </trkpt>
      <trkpt lat="46.64375" lon="5.944">
        <ele>755.2529297</ele>
        <time>2011-08-06T09:38:27Z</time>
      </trkpt>
      <trkpt lat="46.64366" lon="5.94386">
        <ele>756.2141113</ele>
        <time>2011-08-06T09:38:33Z</time>
      </trkpt>
      <trkpt lat="46.64354" lon="5.94376">
        <ele>752.8496094</ele>
        <time>2011-08-06T09:38:38Z</time>
      </trkpt>
      <trkpt lat="46.64351" lon="5.94372">
        <ele>750.4465332</ele>
        <time>2011-08-06T09:38:40Z</time>
      </trkpt>
      <trkpt lat="46.6434" lon="5.94362">
        <ele>748.0432129</ele>
        <time>2011-08-06T09:38:44Z</time>
      </trkpt>
      <trkpt lat="46.64335" lon="5.94354">
        <ele>747.081543</ele>
        <time>2011-08-06T09:38:47Z</time>
      </trkpt>
      <trkpt lat="46.64325" lon="5.94347">
        <ele>749.4851074</ele>
        <time>2011-08-06T09:38:51Z</time>
      </trkpt>
      <trkpt lat="46.6431" lon="5.94337">
        <ele>751.8884277</ele>
        <time>2011-08-06T09:38:56Z</time>
      </trkpt>
      <trkpt lat="46.64307" lon="5.94336">
        <ele>752.3688965</ele>
        <time>2011-08-06T09:38:57Z</time>
      </trkpt>
      <trkpt lat="46.64296" lon="5.94326">
        <ele>757.65625</ele>
        <time>2011-08-06T09:39:01Z</time>
      </trkpt>
      <trkpt lat="46.64277" lon="5.94312">
        <ele>769.6728516</ele>
        <time>2011-08-06T09:39:07Z</time>
      </trkpt>
      <trkpt lat="46.64265" lon="5.94303">
        <ele>771.1147461</ele>
        <time>2011-08-06T09:39:12Z</time>
      </trkpt>
      <trkpt lat="46.64258" lon="5.94294">
        <ele>766.3081055</ele>
        <time>2011-08-06T09:39:16Z</time>
      </trkpt>
      <trkpt lat="46.64254" lon="5.94292">
        <ele>763.4240723</ele>
        <time>2011-08-06T09:39:18Z</time>
      </trkpt>
      <trkpt lat="46.64243" lon="5.94277">
        <ele>760.0593262</ele>
        <time>2011-08-06T09:39:24Z</time>
      </trkpt>
      <trkpt lat="46.64242" lon="5.94275">
        <ele>758.6174316</ele>
        <time>2011-08-06T09:39:25Z</time>
      </trkpt>
      <trkpt lat="46.64235" lon="5.94261">
        <ele>752.3688965</ele>
        <time>2011-08-06T09:39:30Z</time>
      </trkpt>
      <trkpt lat="46.6423" lon="5.94256">
        <ele>746.6010742</ele>
        <time>2011-08-06T09:39:33Z</time>
      </trkpt>
      <trkpt lat="46.64222" lon="5.9425">
        <ele>743.2363281</ele>
        <time>2011-08-06T09:39:37Z</time>
      </trkpt>
      <trkpt lat="46.64209" lon="5.94238">
        <ele>735.5458984</ele>
        <time>2011-08-06T09:39:43Z</time>
      </trkpt>
      <trkpt lat="46.64199" lon="5.9423">
        <ele>733.1425781</ele>
        <time>2011-08-06T09:39:48Z</time>
      </trkpt>
      <trkpt lat="46.64181" lon="5.9422">
        <ele>736.0266113</ele>
        <time>2011-08-06T09:39:54Z</time>
      </trkpt>
      <trkpt lat="46.64166" lon="5.9421">
        <ele>738.4299316</ele>
        <time>2011-08-06T09:39:59Z</time>
      </trkpt>
      <trkpt lat="46.64155" lon="5.94205">
        <ele>741.3137207</ele>
        <time>2011-08-06T09:40:03Z</time>
      </trkpt>
      <trkpt lat="46.64145" lon="5.94202">
        <ele>745.6396484</ele>
        <time>2011-08-06T09:40:07Z</time>
      </trkpt>
      <trkpt lat="46.64127" lon="5.94199">
        <ele>740.8330078</ele>
        <time>2011-08-06T09:40:13Z</time>
      </trkpt>
      <trkpt lat="46.64118" lon="5.94197">
        <ele>737.4685059</ele>
        <time>2011-08-06T09:40:17Z</time>
      </trkpt>
      <trkpt lat="46.6411" lon="5.94194">
        <ele>736.987793</ele>
        <time>2011-08-06T09:40:20Z</time>
      </trkpt>
      <trkpt lat="46.64096" lon="5.94204">
        <ele>737.9492188</ele>
        <time>2011-08-06T09:40:26Z</time>
      </trkpt>
      <trkpt lat="46.64084" lon="5.94209">
        <ele>735.0654297</ele>
        <time>2011-08-06T09:40:31Z</time>
      </trkpt>
      <trkpt lat="46.64071" lon="5.94214">
        <ele>733.1425781</ele>
        <time>2011-08-06T09:40:36Z</time>
      </trkpt>
      <trkpt lat="46.64061" lon="5.94222">
        <ele>729.2971191</ele>
        <time>2011-08-06T09:40:41Z</time>
      </trkpt>
      <trkpt lat="46.64051" lon="5.94233">
        <ele>730.7392578</ele>
        <time>2011-08-06T09:40:46Z</time>
      </trkpt>
      <trkpt lat="46.64041" lon="5.94246">
        <ele>735.5458984</ele>
        <time>2011-08-06T09:40:51Z</time>
      </trkpt>
      <trkpt lat="46.6403" lon="5.94258">
        <ele>739.8718262</ele>
        <time>2011-08-06T09:40:56Z</time>
      </trkpt>
      <trkpt lat="46.64021" lon="5.94268">
        <ele>743.717041</ele>
        <time>2011-08-06T09:41:00Z</time>
      </trkpt>
      <trkpt lat="46.64007" lon="5.94279">
        <ele>743.2363281</ele>
        <time>2011-08-06T09:41:06Z</time>
      </trkpt>
      <trkpt lat="46.63997" lon="5.94289">
        <ele>740.3525391</ele>
        <time>2011-08-06T09:41:11Z</time>
      </trkpt>
      <trkpt lat="46.6399" lon="5.94298">
        <ele>735.5458984</ele>
        <time>2011-08-06T09:41:16Z</time>
      </trkpt>
      <trkpt lat="46.63989" lon="5.943">
        <ele>735.0654297</ele>
        <time>2011-08-06T09:41:17Z</time>
      </trkpt>
      <trkpt lat="46.63979" lon="5.94312">
        <ele>731.7004395</ele>
        <time>2011-08-06T09:41:23Z</time>
      </trkpt>
      <trkpt lat="46.63974" lon="5.94325">
        <ele>727.3747559</ele>
        <time>2011-08-06T09:41:28Z</time>
      </trkpt>
      <trkpt lat="46.63969" lon="5.94336">
        <ele>725.9326172</ele>
        <time>2011-08-06T09:41:33Z</time>
      </trkpt>
      <trkpt lat="46.63967" lon="5.94348">
        <ele>723.0488281</ele>
        <time>2011-08-06T09:41:37Z</time>
      </trkpt>
      <trkpt lat="46.63964" lon="5.94352">
        <ele>721.1262207</ele>
        <time>2011-08-06T09:41:39Z</time>
      </trkpt>
      <trkpt lat="46.63961" lon="5.94361">
        <ele>719.6843262</ele>
        <time>2011-08-06T09:41:43Z</time>
      </trkpt>
      <trkpt lat="46.6396" lon="5.94376">
        <ele>717.2810059</ele>
        <time>2011-08-06T09:41:49Z</time>
      </trkpt>
      <trkpt lat="46.63959" lon="5.94387">
        <ele>719.2036133</ele>
        <time>2011-08-06T09:41:53Z</time>
      </trkpt>
      <trkpt lat="46.6396" lon="5.94402">
        <ele>724.0100098</ele>
        <time>2011-08-06T09:41:58Z</time>
      </trkpt>
      <trkpt lat="46.6396" lon="5.94405">
        <ele>724.0100098</ele>
        <time>2011-08-06T09:41:59Z</time>
      </trkpt>
      <trkpt lat="46.63959" lon="5.9442">
        <ele>725.9326172</ele>
        <time>2011-08-06T09:42:04Z</time>
      </trkpt>
      <trkpt lat="46.6396" lon="5.94434">
        <ele>726.894043</ele>
        <time>2011-08-06T09:42:09Z</time>
      </trkpt>
      <trkpt lat="46.63962" lon="5.94439">
        <ele>726.894043</ele>
        <time>2011-08-06T09:42:11Z</time>
      </trkpt>
      <trkpt lat="46.63964" lon="5.94459">
        <ele>728.3359375</ele>
        <time>2011-08-06T09:42:18Z</time>
      </trkpt>
      <trkpt lat="46.63963" lon="5.94472">
        <ele>726.894043</ele>
        <time>2011-08-06T09:42:24Z</time>
      </trkpt>
      <trkpt lat="46.63963" lon="5.94482">
        <ele>727.3747559</ele>
        <time>2011-08-06T09:42:29Z</time>
      </trkpt>
      <trkpt lat="46.63966" lon="5.94494">
        <ele>728.8166504</ele>
        <time>2011-08-06T09:42:34Z</time>
      </trkpt>
      <trkpt lat="46.63968" lon="5.94498">
        <ele>728.8166504</ele>
        <time>2011-08-06T09:42:36Z</time>
      </trkpt>
      <trkpt lat="46.63973" lon="5.94519">
        <ele>739.8718262</ele>
        <time>2011-08-06T09:42:45Z</time>
      </trkpt>
      <trkpt lat="46.63973" lon="5.94523">
        <ele>742.7558594</ele>
        <time>2011-08-06T09:42:46Z</time>
      </trkpt>
      <trkpt lat="46.63975" lon="5.94535">
        <ele>741.7944336</ele>
        <time>2011-08-06T09:42:53Z</time>
      </trkpt>
      <trkpt lat="46.63979" lon="5.94543">
        <ele>739.3911133</ele>
        <time>2011-08-06T09:42:58Z</time>
      </trkpt>
      <trkpt lat="46.63984" lon="5.94554">
        <ele>742.2751465</ele>
        <time>2011-08-06T09:43:04Z</time>
      </trkpt>
      <trkpt lat="46.63986" lon="5.94561">
        <ele>745.1589355</ele>
        <time>2011-08-06T09:43:07Z</time>
      </trkpt>
      <trkpt lat="46.63988" lon="5.94569">
        <ele>744.6782227</ele>
        <time>2011-08-06T09:43:13Z</time>
      </trkpt>
      <trkpt lat="46.63992" lon="5.94578">
        <ele>745.6396484</ele>
        <time>2011-08-06T09:43:17Z</time>
      </trkpt>
      <trkpt lat="46.64001" lon="5.94587">
        <ele>745.1589355</ele>
        <time>2011-08-06T09:43:24Z</time>
      </trkpt>
      <trkpt lat="46.64007" lon="5.94593">
        <ele>745.1589355</ele>
        <time>2011-08-06T09:43:28Z</time>
      </trkpt>
      <trkpt lat="46.64014" lon="5.94609">
        <ele>746.1203613</ele>
        <time>2011-08-06T09:43:35Z</time>
      </trkpt>
      <trkpt lat="46.64021" lon="5.9462">
        <ele>742.7558594</ele>
        <time>2011-08-06T09:43:41Z</time>
      </trkpt>
      <trkpt lat="46.64023" lon="5.94626">
        <ele>742.7558594</ele>
        <time>2011-08-06T09:43:44Z</time>
      </trkpt>
      <trkpt lat="46.64025" lon="5.94633">
        <ele>744.1977539</ele>
        <time>2011-08-06T09:43:48Z</time>
      </trkpt>
      <trkpt lat="46.64026" lon="5.94639">
        <ele>746.1203613</ele>
        <time>2011-08-06T09:43:50Z</time>
      </trkpt>
      <trkpt lat="46.6403" lon="5.94648">
        <ele>741.3137207</ele>
        <time>2011-08-06T09:43:55Z</time>
      </trkpt>
      <trkpt lat="46.64032" lon="5.94652">
        <ele>743.717041</ele>
        <time>2011-08-06T09:43:58Z</time>
      </trkpt>
      <trkpt lat="46.64036" lon="5.94668">
        <ele>743.2363281</ele>
        <time>2011-08-06T09:44:05Z</time>
      </trkpt>
      <trkpt lat="46.64037" lon="5.94672">
        <ele>742.7558594</ele>
        <time>2011-08-06T09:44:07Z</time>
      </trkpt>
      <trkpt lat="46.64038" lon="5.94681">
        <ele>747.081543</ele>
        <time>2011-08-06T09:44:10Z</time>
      </trkpt>
      <trkpt lat="46.6404" lon="5.94698">
        <ele>753.8110352</ele>
        <time>2011-08-06T09:44:18Z</time>
      </trkpt>
      <trkpt lat="46.64043" lon="5.94706">
        <ele>754.291748</ele>
        <time>2011-08-06T09:44:22Z</time>
      </trkpt>
      <trkpt lat="46.64044" lon="5.9471">
        <ele>755.7336426</ele>
        <time>2011-08-06T09:44:24Z</time>
      </trkpt>
      <trkpt lat="46.64045" lon="5.94726">
        <ele>766.7888184</ele>
        <time>2011-08-06T09:44:30Z</time>
      </trkpt>
      <trkpt lat="46.64045" lon="5.9473">
        <ele>771.1147461</ele>
        <time>2011-08-06T09:44:34Z</time>
      </trkpt>
      <trkpt lat="46.64048" lon="5.94741">
        <ele>768.2307129</ele>
        <time>2011-08-06T09:44:40Z</time>
      </trkpt>
      <trkpt lat="46.6405" lon="5.94744">
        <ele>766.7888184</ele>
        <time>2011-08-06T09:44:42Z</time>
      </trkpt>
      <trkpt lat="46.64052" lon="5.94752">
        <ele>761.9821777</ele>
        <time>2011-08-06T09:44:46Z</time>
      </trkpt>
      <trkpt lat="46.64061" lon="5.94764">
        <ele>757.1755371</ele>
        <time>2011-08-06T09:44:53Z</time>
      </trkpt>
      <trkpt lat="46.64062" lon="5.94765">
        <ele>756.6948242</ele>
        <time>2011-08-06T09:44:54Z</time>
      </trkpt>
      <trkpt lat="46.64066" lon="5.94776">
        <ele>753.8110352</ele>
        <time>2011-08-06T09:45:00Z</time>
      </trkpt>
      <trkpt lat="46.64072" lon="5.94787">
        <ele>752.3688965</ele>
        <time>2011-08-06T09:45:08Z</time>
      </trkpt>
      <trkpt lat="46.64074" lon="5.94789">
        <ele>751.4077148</ele>
        <time>2011-08-06T09:45:09Z</time>
      </trkpt>
      <trkpt lat="46.64078" lon="5.94795">
        <ele>750.4465332</ele>
        <time>2011-08-06T09:45:12Z</time>
      </trkpt>
      <trkpt lat="46.64084" lon="5.94807">
        <ele>753.3303223</ele>
        <time>2011-08-06T09:45:18Z</time>
      </trkpt>
      <trkpt lat="46.64085" lon="5.94812">
        <ele>755.2529297</ele>
        <time>2011-08-06T09:45:20Z</time>
      </trkpt>
      <trkpt lat="46.6409" lon="5.94827">
        <ele>764.385498</ele>
        <time>2011-08-06T09:45:27Z</time>
      </trkpt>
      <trkpt lat="46.6409" lon="5.94831">
        <ele>767.2695313</ele>
        <time>2011-08-06T09:45:28Z</time>
      </trkpt>
      <trkpt lat="46.64087" lon="5.94843">
        <ele>773.9985352</ele>
        <time>2011-08-06T09:45:33Z</time>
      </trkpt>
      <trkpt lat="46.64089" lon="5.94866">
        <ele>767.2695313</ele>
        <time>2011-08-06T09:45:42Z</time>
      </trkpt>
      <trkpt lat="46.6409" lon="5.94868">
        <ele>767.75</ele>
        <time>2011-08-06T09:45:43Z</time>
      </trkpt>
      <trkpt lat="46.6409" lon="5.94877">
        <ele>770.6340332</ele>
        <time>2011-08-06T09:45:46Z</time>
      </trkpt>
      <trkpt lat="46.64092" lon="5.94894">
        <ele>778.8051758</ele>
        <time>2011-08-06T09:45:52Z</time>
      </trkpt>
      <trkpt lat="46.64092" lon="5.94896">
        <ele>780.2473145</ele>
        <time>2011-08-06T09:45:53Z</time>
      </trkpt>
      <trkpt lat="46.64095" lon="5.94908">
        <ele>777.3632813</ele>
        <time>2011-08-06T09:45:59Z</time>
      </trkpt>
      <trkpt lat="46.64097" lon="5.94919">
        <ele>777.3632813</ele>
        <time>2011-08-06T09:46:04Z</time>
      </trkpt>
      <trkpt lat="46.64098" lon="5.94923">
        <ele>777.3632813</ele>
        <time>2011-08-06T09:46:06Z</time>
      </trkpt>
      <trkpt lat="46.64101" lon="5.94937">
        <ele>778.3244629</ele>
        <time>2011-08-06T09:46:11Z</time>
      </trkpt>
      <trkpt lat="46.64104" lon="5.94947">
        <ele>780.2473145</ele>
        <time>2011-08-06T09:46:16Z</time>
      </trkpt>
      <trkpt lat="46.64105" lon="5.94949">
        <ele>780.2473145</ele>
        <time>2011-08-06T09:46:17Z</time>
      </trkpt>
      <trkpt lat="46.64112" lon="5.94963">
        <ele>780.2473145</ele>
        <time>2011-08-06T09:46:24Z</time>
      </trkpt>
      <trkpt lat="46.64113" lon="5.94967">
        <ele>781.2087402</ele>
        <time>2011-08-06T09:46:26Z</time>
      </trkpt>
      <trkpt lat="46.64117" lon="5.94981">
        <ele>782.1699219</ele>
        <time>2011-08-06T09:46:33Z</time>
      </trkpt>
      <trkpt lat="46.64121" lon="5.94994">
        <ele>784.5732422</ele>
        <time>2011-08-06T09:46:39Z</time>
      </trkpt>
      <trkpt lat="46.64127" lon="5.95004">
        <ele>785.0539551</ele>
        <time>2011-08-06T09:46:44Z</time>
      </trkpt>
      <trkpt lat="46.64129" lon="5.95008">
        <ele>784.5732422</ele>
        <time>2011-08-06T09:46:46Z</time>
      </trkpt>
      <trkpt lat="46.64133" lon="5.9502">
        <ele>786.4958496</ele>
        <time>2011-08-06T09:46:52Z</time>
      </trkpt>
      <trkpt lat="46.64138" lon="5.95031">
        <ele>788.418457</ele>
        <time>2011-08-06T09:46:57Z</time>
      </trkpt>
      <trkpt lat="46.64145" lon="5.95044">
        <ele>789.8603516</ele>
        <time>2011-08-06T09:47:03Z</time>
      </trkpt>
      <trkpt lat="46.6415" lon="5.95059">
        <ele>792.2636719</ele>
        <time>2011-08-06T09:47:09Z</time>
      </trkpt>
      <trkpt lat="46.64156" lon="5.95072">
        <ele>795.1474609</ele>
        <time>2011-08-06T09:47:15Z</time>
      </trkpt>
      <trkpt lat="46.64158" lon="5.95077">
        <ele>795.6281738</ele>
        <time>2011-08-06T09:47:17Z</time>
      </trkpt>
      <trkpt lat="46.64163" lon="5.95095">
        <ele>795.1474609</ele>
        <time>2011-08-06T09:47:24Z</time>
      </trkpt>
      <trkpt lat="46.64167" lon="5.95113">
        <ele>793.2248535</ele>
        <time>2011-08-06T09:47:30Z</time>
      </trkpt>
      <trkpt lat="46.64171" lon="5.95127">
        <ele>792.7443848</ele>
        <time>2011-08-06T09:47:35Z</time>
      </trkpt>
      <trkpt lat="46.64175" lon="5.95141">
        <ele>793.2248535</ele>
        <time>2011-08-06T09:47:40Z</time>
      </trkpt>
      <trkpt lat="46.64179" lon="5.95156">
        <ele>794.666748</ele>
        <time>2011-08-06T09:47:45Z</time>
      </trkpt>
      <trkpt lat="46.64179" lon="5.95169">
        <ele>795.6281738</ele>
        <time>2011-08-06T09:47:49Z</time>
      </trkpt>
      <trkpt lat="46.64183" lon="5.95192">
        <ele>798.0317383</ele>
        <time>2011-08-06T09:47:56Z</time>
      </trkpt>
      <trkpt lat="46.64183" lon="5.95205">
        <ele>800.9155273</ele>
        <time>2011-08-06T09:48:00Z</time>
      </trkpt>
      <trkpt lat="46.64186" lon="5.95224">
        <ele>797.0703125</ele>
        <time>2011-08-06T09:48:06Z</time>
      </trkpt>
      <trkpt lat="46.64186" lon="5.95244">
        <ele>797.0703125</ele>
        <time>2011-08-06T09:48:12Z</time>
      </trkpt>
      <trkpt lat="46.64188" lon="5.95259">
        <ele>796.5898438</ele>
        <time>2011-08-06T09:48:17Z</time>
      </trkpt>
      <trkpt lat="46.64192" lon="5.95276">
        <ele>796.1091309</ele>
        <time>2011-08-06T09:48:23Z</time>
      </trkpt>
      <trkpt lat="46.64192" lon="5.95278">
        <ele>796.1091309</ele>
        <time>2011-08-06T09:48:24Z</time>
      </trkpt>
      <trkpt lat="46.64189" lon="5.95292">
        <ele>798.0317383</ele>
        <time>2011-08-06T09:48:28Z</time>
      </trkpt>
      <trkpt lat="46.64187" lon="5.95311">
        <ele>795.6281738</ele>
        <time>2011-08-06T09:48:34Z</time>
      </trkpt>
      <trkpt lat="46.64184" lon="5.95328">
        <ele>794.1862793</ele>
        <time>2011-08-06T09:48:40Z</time>
      </trkpt>
      <trkpt lat="46.64179" lon="5.95345">
        <ele>792.2636719</ele>
        <time>2011-08-06T09:48:45Z</time>
      </trkpt>
      <trkpt lat="46.64174" lon="5.95357">
        <ele>787.4570313</ele>
        <time>2011-08-06T09:48:49Z</time>
      </trkpt>
      <trkpt lat="46.64164" lon="5.95373">
        <ele>782.6506348</ele>
        <time>2011-08-06T09:48:54Z</time>
      </trkpt>
      <trkpt lat="46.64156" lon="5.95383">
        <ele>780.2473145</ele>
        <time>2011-08-06T09:48:58Z</time>
      </trkpt>
      <trkpt lat="46.6415" lon="5.95392">
        <ele>777.84375</ele>
        <time>2011-08-06T09:49:01Z</time>
      </trkpt>
      <trkpt lat="46.64143" lon="5.95414">
        <ele>777.84375</ele>
        <time>2011-08-06T09:49:07Z</time>
      </trkpt>
      <trkpt lat="46.64136" lon="5.95431">
        <ele>778.8051758</ele>
        <time>2011-08-06T09:49:12Z</time>
      </trkpt>
      <trkpt lat="46.64128" lon="5.95455">
        <ele>779.2856445</ele>
        <time>2011-08-06T09:49:19Z</time>
      </trkpt>
      <trkpt lat="46.64119" lon="5.95476">
        <ele>779.7663574</ele>
        <time>2011-08-06T09:49:25Z</time>
      </trkpt>
      <trkpt lat="46.64106" lon="5.95492">
        <ele>778.8051758</ele>
        <time>2011-08-06T09:49:31Z</time>
      </trkpt>
      <trkpt lat="46.64094" lon="5.95506">
        <ele>778.8051758</ele>
        <time>2011-08-06T09:49:36Z</time>
      </trkpt>
      <trkpt lat="46.64083" lon="5.95515">
        <ele>778.8051758</ele>
        <time>2011-08-06T09:49:41Z</time>
      </trkpt>
      <trkpt lat="46.64072" lon="5.95524">
        <ele>777.3632813</ele>
        <time>2011-08-06T09:49:46Z</time>
      </trkpt>
      <trkpt lat="46.64058" lon="5.95528">
        <ele>773.0373535</ele>
        <time>2011-08-06T09:49:52Z</time>
      </trkpt>
      <trkpt lat="46.64044" lon="5.9553">
        <ele>767.2695313</ele>
        <time>2011-08-06T09:49:58Z</time>
      </trkpt>
      <trkpt lat="46.64036" lon="5.95542">
        <ele>765.3469238</ele>
        <time>2011-08-06T09:50:03Z</time>
      </trkpt>
      <trkpt lat="46.64036" lon="5.95558">
        <ele>763.4240723</ele>
        <time>2011-08-06T09:50:08Z</time>
      </trkpt>
      <trkpt lat="46.64037" lon="5.95565">
        <ele>762.4626465</ele>
        <time>2011-08-06T09:50:10Z</time>
      </trkpt>
      <trkpt lat="46.64027" lon="5.95576">
        <ele>758.6174316</ele>
        <time>2011-08-06T09:50:15Z</time>
      </trkpt>
      <trkpt lat="46.64024" lon="5.95577">
        <ele>758.1369629</ele>
        <time>2011-08-06T09:50:16Z</time>
      </trkpt>
      <trkpt lat="46.64007" lon="5.95583">
        <ele>754.7722168</ele>
        <time>2011-08-06T09:50:23Z</time>
      </trkpt>
      <trkpt lat="46.6399" lon="5.95591">
        <ele>749.9658203</ele>
        <time>2011-08-06T09:50:30Z</time>
      </trkpt>
      <trkpt lat="46.63977" lon="5.95597">
        <ele>748.0432129</ele>
        <time>2011-08-06T09:50:35Z</time>
      </trkpt>
      <trkpt lat="46.63963" lon="5.95603">
        <ele>747.5622559</ele>
        <time>2011-08-06T09:50:40Z</time>
      </trkpt>
      <trkpt lat="46.63946" lon="5.9561">
        <ele>746.6010742</ele>
        <time>2011-08-06T09:50:46Z</time>
      </trkpt>
      <trkpt lat="46.63935" lon="5.95613">
        <ele>745.6396484</ele>
        <time>2011-08-06T09:50:50Z</time>
      </trkpt>
      <trkpt lat="46.63929" lon="5.95599">
        <ele>745.6396484</ele>
        <time>2011-08-06T09:50:54Z</time>
      </trkpt>
      <trkpt lat="46.63921" lon="5.95573">
        <ele>748.0432129</ele>
        <time>2011-08-06T09:51:01Z</time>
      </trkpt>
      <trkpt lat="46.63915" lon="5.95554">
        <ele>748.0432129</ele>
        <time>2011-08-06T09:51:06Z</time>
      </trkpt>
      <trkpt lat="46.63908" lon="5.95532">
        <ele>748.0432129</ele>
        <time>2011-08-06T09:51:12Z</time>
      </trkpt>
      <trkpt lat="46.63902" lon="5.95509">
        <ele>748.0432129</ele>
        <time>2011-08-06T09:51:18Z</time>
      </trkpt>
      <trkpt lat="46.63896" lon="5.95484">
        <ele>748.5236816</ele>
        <time>2011-08-06T09:51:24Z</time>
      </trkpt>
      <trkpt lat="46.63891" lon="5.95466">
        <ele>747.081543</ele>
        <time>2011-08-06T09:51:29Z</time>
      </trkpt>
      <trkpt lat="46.63886" lon="5.95445">
        <ele>746.6010742</ele>
        <time>2011-08-06T09:51:34Z</time>
      </trkpt>
      <trkpt lat="46.63881" lon="5.95426">
        <ele>747.081543</ele>
        <time>2011-08-06T09:51:39Z</time>
      </trkpt>
      <trkpt lat="46.63877" lon="5.95408">
        <ele>744.6782227</ele>
        <time>2011-08-06T09:51:44Z</time>
      </trkpt>
      <trkpt lat="46.63873" lon="5.95387">
        <ele>743.2363281</ele>
        <time>2011-08-06T09:51:49Z</time>
      </trkpt>
      <trkpt lat="46.63871" lon="5.95362">
        <ele>740.8330078</ele>
        <time>2011-08-06T09:51:55Z</time>
      </trkpt>
      <trkpt lat="46.63867" lon="5.95343">
        <ele>739.3911133</ele>
        <time>2011-08-06T09:52:00Z</time>
      </trkpt>
      <trkpt lat="46.63863" lon="5.95328">
        <ele>739.3911133</ele>
        <time>2011-08-06T09:52:04Z</time>
      </trkpt>
      <trkpt lat="46.63859" lon="5.95311">
        <ele>739.8718262</ele>
        <time>2011-08-06T09:52:08Z</time>
      </trkpt>
      <trkpt lat="46.63858" lon="5.95304">
        <ele>739.8718262</ele>
        <time>2011-08-06T09:52:10Z</time>
      </trkpt>
    </trkseg>
  </trk>
</gpx>